﻿<?xml version="1.0" encoding="UTF-8" standalone="no" ?>
<gpx xmlns="http://www.topografix.com/GPX/1/1" creator="CompeGPS" version="1.1" xmlns:xsi="http://www.w3.org/2001/XMLSchema-instance" xsi:schemaLocation="http://www.topografix.com/GPX/1/1 http://www.topografix.com/GPX/1/1/gpx.xsd http://www.garmin.com/xmlschemas/GpxExtensions/v3 http://www.garmin.com/xmlschemas/GpxExtensionsv3.xsd http://www.garmin.com/xmlschemas/TrackPointExtension/v1 http://www.garmin.com/xmlschemas/TrackPointExtensionv1.xsd" xmlns:gpxtpx="http://www.garmin.com/xmlschemas/TrackPointExtension/v1">
  <metadata>
    <link href="http://www.compegps.com">
      <text>CompeGPS TEAM, SL</text>
    </link>
    <time>2013-04-20T19:29:57Z</time>
    <bounds maxlat="43.523564" maxlon="1.521222" minlat="43.496913" minlon="1.492364"/>
  </metadata>
<wpt lat="43.502181" lon="1.508757">
  <ele>185</ele>
  <name>Pechabou</name>
</wpt>
<wpt lat="43.499594" lon="1.508939">
  <ele>200</ele>
  <name>Castagnere</name>
</wpt>
<wpt lat="43.504364" lon="1.521222">
  <ele>140</ele>
  <name>Saint-Jauzy</name>
</wpt>
<wpt lat="43.510892" lon="1.517227">
  <ele>140</ele>
  <name>Ecluse de Vic</name>
</wpt>
<wpt lat="43.523533" lon="1.518240">
  <ele>140</ele>
  <name>Ecluse de Castanet</name>
</wpt>
<wpt lat="43.516619" lon="1.496994">
  <ele>155</ele>
  <name>Castanet-Tolosan</name>
</wpt>
<wpt lat="43.514772" lon="1.495359">
  <ele>155</ele>
  <name>Semenobren</name>
</wpt>
<wpt lat="43.507777" lon="1.494422">
  <ele>170</ele>
  <name>Bois de Savignol</name>
</wpt>
  <trk>
    <name>Pechabou</name>
    <trkseg>
      <trkpt lat="43.502181" lon="1.508757">
        <ele>189.0</ele>
        <time>2013-04-20T10:22:35Z</time>
        <name>Pechabou</name>
      </trkpt>
      <trkpt lat="43.502087" lon="1.508694">
        <ele>191.4</ele>
        <time>2013-04-20T10:22:50Z</time>
      </trkpt>
      <trkpt lat="43.502025" lon="1.508597">
        <ele>192.9</ele>
        <time>2013-04-20T10:23:03Z</time>
      </trkpt>
      <trkpt lat="43.501958" lon="1.508551">
        <ele>193.8</ele>
        <time>2013-04-20T10:23:20Z</time>
      </trkpt>
      <trkpt lat="43.501947" lon="1.508720">
        <ele>194.3</ele>
        <time>2013-04-20T10:23:34Z</time>
      </trkpt>
      <trkpt lat="43.501894" lon="1.508874">
        <ele>196.7</ele>
        <time>2013-04-20T10:23:48Z</time>
      </trkpt>
      <trkpt lat="43.501838" lon="1.509012">
        <ele>198.6</ele>
        <time>2013-04-20T10:24:02Z</time>
      </trkpt>
      <trkpt lat="43.501791" lon="1.509165">
        <ele>199.6</ele>
        <time>2013-04-20T10:24:15Z</time>
      </trkpt>
      <trkpt lat="43.501753" lon="1.509325">
        <ele>199.1</ele>
        <time>2013-04-20T10:24:29Z</time>
      </trkpt>
      <trkpt lat="43.501690" lon="1.509491">
        <ele>202.0</ele>
        <time>2013-04-20T10:24:42Z</time>
      </trkpt>
      <trkpt lat="43.501602" lon="1.509611">
        <ele>203.0</ele>
        <time>2013-04-20T10:24:55Z</time>
      </trkpt>
      <trkpt lat="43.501518" lon="1.509688">
        <ele>204.4</ele>
        <time>2013-04-20T10:25:09Z</time>
      </trkpt>
      <trkpt lat="43.501411" lon="1.509684">
        <ele>205.4</ele>
        <time>2013-04-20T10:25:20Z</time>
      </trkpt>
      <trkpt lat="43.501302" lon="1.509628">
        <ele>205.9</ele>
        <time>2013-04-20T10:25:33Z</time>
      </trkpt>
      <trkpt lat="43.501202" lon="1.509543">
        <ele>208.7</ele>
        <time>2013-04-20T10:25:46Z</time>
      </trkpt>
      <trkpt lat="43.501130" lon="1.509502">
        <ele>209.2</ele>
        <time>2013-04-20T10:26:01Z</time>
      </trkpt>
      <trkpt lat="43.501045" lon="1.509443">
        <ele>211.6</ele>
        <time>2013-04-20T10:26:13Z</time>
      </trkpt>
      <trkpt lat="43.500958" lon="1.509379">
        <ele>212.6</ele>
        <time>2013-04-20T10:26:25Z</time>
      </trkpt>
      <trkpt lat="43.500821" lon="1.509303">
        <ele>212.6</ele>
        <time>2013-04-20T10:26:35Z</time>
      </trkpt>
      <trkpt lat="43.500733" lon="1.509212">
        <ele>214.0</ele>
        <time>2013-04-20T10:26:45Z</time>
      </trkpt>
      <trkpt lat="43.500615" lon="1.509148">
        <ele>214.5</ele>
        <time>2013-04-20T10:26:55Z</time>
      </trkpt>
      <trkpt lat="43.500555" lon="1.509051">
        <ele>215.5</ele>
        <time>2013-04-20T10:27:06Z</time>
      </trkpt>
      <trkpt lat="43.500494" lon="1.508982">
        <ele>217.4</ele>
        <time>2013-04-20T10:27:18Z</time>
      </trkpt>
      <trkpt lat="43.500417" lon="1.508903">
        <ele>216.9</ele>
        <time>2013-04-20T10:27:27Z</time>
      </trkpt>
      <trkpt lat="43.500318" lon="1.508873">
        <ele>218.4</ele>
        <time>2013-04-20T10:27:39Z</time>
      </trkpt>
      <trkpt lat="43.500236" lon="1.508984">
        <ele>218.8</ele>
        <time>2013-04-20T10:27:50Z</time>
      </trkpt>
      <trkpt lat="43.500177" lon="1.509113">
        <ele>219.8</ele>
        <time>2013-04-20T10:28:00Z</time>
      </trkpt>
      <trkpt lat="43.500099" lon="1.509193">
        <ele>220.3</ele>
        <time>2013-04-20T10:28:11Z</time>
      </trkpt>
      <trkpt lat="43.499953" lon="1.509178">
        <ele>219.3</ele>
        <time>2013-04-20T10:29:11Z</time>
      </trkpt>
      <trkpt lat="43.499842" lon="1.509143">
        <ele>220.8</ele>
        <time>2013-04-20T10:29:34Z</time>
      </trkpt>
      <trkpt lat="43.499772" lon="1.509106">
        <ele>220.8</ele>
        <time>2013-04-20T10:29:42Z</time>
      </trkpt>
      <trkpt lat="43.499688" lon="1.509030">
        <ele>219.8</ele>
        <time>2013-04-20T10:30:10Z</time>
      </trkpt>
      <trkpt lat="43.499594" lon="1.508939">
        <ele>219.3</ele>
        <time>2013-04-20T10:30:21Z</time>
        <name>Castagnere</name>
      </trkpt>
      <trkpt lat="43.499515" lon="1.508915">
        <ele>218.4</ele>
        <time>2013-04-20T10:30:43Z</time>
      </trkpt>
      <trkpt lat="43.499477" lon="1.509039">
        <ele>216.4</ele>
        <time>2013-04-20T10:30:56Z</time>
      </trkpt>
      <trkpt lat="43.499379" lon="1.509158">
        <ele>215.0</ele>
        <time>2013-04-20T10:31:11Z</time>
      </trkpt>
      <trkpt lat="43.499270" lon="1.509218">
        <ele>212.1</ele>
        <time>2013-04-20T10:31:27Z</time>
      </trkpt>
      <trkpt lat="43.499155" lon="1.509267">
        <ele>209.7</ele>
        <time>2013-04-20T10:31:43Z</time>
      </trkpt>
      <trkpt lat="43.499027" lon="1.509384">
        <ele>207.3</ele>
        <time>2013-04-20T10:32:14Z</time>
      </trkpt>
      <trkpt lat="43.498942" lon="1.509500">
        <ele>203.9</ele>
        <time>2013-04-20T10:32:26Z</time>
      </trkpt>
      <trkpt lat="43.498865" lon="1.509630">
        <ele>202.5</ele>
        <time>2013-04-20T10:32:38Z</time>
      </trkpt>
      <trkpt lat="43.498807" lon="1.509750">
        <ele>203.0</ele>
        <time>2013-04-20T10:32:48Z</time>
      </trkpt>
      <trkpt lat="43.498729" lon="1.509935">
        <ele>200.6</ele>
        <time>2013-04-20T10:33:02Z</time>
      </trkpt>
      <trkpt lat="43.498663" lon="1.510076">
        <ele>198.6</ele>
        <time>2013-04-20T10:33:11Z</time>
      </trkpt>
      <trkpt lat="43.498593" lon="1.510210">
        <ele>196.2</ele>
        <time>2013-04-20T10:33:22Z</time>
      </trkpt>
      <trkpt lat="43.498512" lon="1.510299">
        <ele>194.8</ele>
        <time>2013-04-20T10:33:31Z</time>
      </trkpt>
      <trkpt lat="43.498429" lon="1.510394">
        <ele>191.4</ele>
        <time>2013-04-20T10:33:40Z</time>
      </trkpt>
      <trkpt lat="43.498338" lon="1.510541">
        <ele>190.5</ele>
        <time>2013-04-20T10:33:50Z</time>
      </trkpt>
      <trkpt lat="43.498291" lon="1.510709">
        <ele>188.1</ele>
        <time>2013-04-20T10:34:00Z</time>
      </trkpt>
      <trkpt lat="43.498283" lon="1.510869">
        <ele>187.6</ele>
        <time>2013-04-20T10:34:08Z</time>
      </trkpt>
      <trkpt lat="43.498342" lon="1.511020">
        <ele>186.6</ele>
        <time>2013-04-20T10:34:17Z</time>
      </trkpt>
      <trkpt lat="43.498367" lon="1.511162">
        <ele>186.1</ele>
        <time>2013-04-20T10:34:26Z</time>
      </trkpt>
      <trkpt lat="43.498409" lon="1.511303">
        <ele>185.7</ele>
        <time>2013-04-20T10:34:36Z</time>
      </trkpt>
      <trkpt lat="43.498455" lon="1.511433">
        <ele>185.7</ele>
        <time>2013-04-20T10:34:45Z</time>
      </trkpt>
      <trkpt lat="43.498512" lon="1.511566">
        <ele>185.2</ele>
        <time>2013-04-20T10:34:54Z</time>
      </trkpt>
      <trkpt lat="43.498561" lon="1.511711">
        <ele>184.2</ele>
        <time>2013-04-20T10:35:03Z</time>
      </trkpt>
      <trkpt lat="43.498605" lon="1.511836">
        <ele>183.8</ele>
        <time>2013-04-20T10:35:12Z</time>
      </trkpt>
      <trkpt lat="43.498638" lon="1.511979">
        <ele>183.3</ele>
        <time>2013-04-20T10:35:21Z</time>
      </trkpt>
      <trkpt lat="43.498676" lon="1.512138">
        <ele>183.3</ele>
        <time>2013-04-20T10:35:31Z</time>
      </trkpt>
      <trkpt lat="43.498701" lon="1.512277">
        <ele>181.4</ele>
        <time>2013-04-20T10:35:40Z</time>
      </trkpt>
      <trkpt lat="43.498753" lon="1.512423">
        <ele>180.9</ele>
        <time>2013-04-20T10:35:50Z</time>
      </trkpt>
      <trkpt lat="43.498800" lon="1.512563">
        <ele>179.9</ele>
        <time>2013-04-20T10:35:59Z</time>
      </trkpt>
      <trkpt lat="43.498878" lon="1.512680">
        <ele>179.9</ele>
        <time>2013-04-20T10:36:09Z</time>
      </trkpt>
      <trkpt lat="43.498951" lon="1.512794">
        <ele>178.9</ele>
        <time>2013-04-20T10:36:19Z</time>
      </trkpt>
      <trkpt lat="43.499042" lon="1.512929">
        <ele>178.9</ele>
        <time>2013-04-20T10:36:29Z</time>
      </trkpt>
      <trkpt lat="43.499113" lon="1.513036">
        <ele>178.0</ele>
        <time>2013-04-20T10:36:38Z</time>
      </trkpt>
      <trkpt lat="43.499199" lon="1.513105">
        <ele>177.0</ele>
        <time>2013-04-20T10:36:48Z</time>
      </trkpt>
      <trkpt lat="43.499294" lon="1.513205">
        <ele>176.5</ele>
        <time>2013-04-20T10:36:58Z</time>
      </trkpt>
      <trkpt lat="43.499377" lon="1.513302">
        <ele>175.6</ele>
        <time>2013-04-20T10:37:07Z</time>
      </trkpt>
      <trkpt lat="43.499451" lon="1.513393">
        <ele>174.1</ele>
        <time>2013-04-20T10:37:16Z</time>
      </trkpt>
      <trkpt lat="43.499551" lon="1.513470">
        <ele>174.6</ele>
        <time>2013-04-20T10:37:26Z</time>
      </trkpt>
      <trkpt lat="43.499633" lon="1.513562">
        <ele>173.7</ele>
        <time>2013-04-20T10:37:36Z</time>
      </trkpt>
      <trkpt lat="43.499721" lon="1.513675">
        <ele>171.2</ele>
        <time>2013-04-20T10:37:45Z</time>
      </trkpt>
      <trkpt lat="43.499803" lon="1.513781">
        <ele>171.2</ele>
        <time>2013-04-20T10:37:54Z</time>
      </trkpt>
      <trkpt lat="43.499916" lon="1.513846">
        <ele>169.8</ele>
        <time>2013-04-20T10:38:03Z</time>
      </trkpt>
      <trkpt lat="43.499932" lon="1.513814">
        <ele>170.8</ele>
        <time>2013-04-20T10:38:33Z</time>
      </trkpt>
      <trkpt lat="43.499920" lon="1.513998">
        <ele>170.8</ele>
        <time>2013-04-20T10:41:14Z</time>
      </trkpt>
      <trkpt lat="43.499878" lon="1.514121">
        <ele>170.3</ele>
        <time>2013-04-20T10:41:26Z</time>
      </trkpt>
      <trkpt lat="43.499881" lon="1.514304">
        <ele>170.3</ele>
        <time>2013-04-20T10:41:38Z</time>
      </trkpt>
      <trkpt lat="43.499883" lon="1.514434">
        <ele>168.9</ele>
        <time>2013-04-20T10:41:48Z</time>
      </trkpt>
      <trkpt lat="43.499848" lon="1.514546">
        <ele>169.3</ele>
        <time>2013-04-20T10:41:57Z</time>
      </trkpt>
      <trkpt lat="43.499767" lon="1.514632">
        <ele>169.3</ele>
        <time>2013-04-20T10:42:07Z</time>
      </trkpt>
      <trkpt lat="43.499787" lon="1.514769">
        <ele>169.3</ele>
        <time>2013-04-20T10:42:16Z</time>
      </trkpt>
      <trkpt lat="43.499788" lon="1.514906">
        <ele>168.9</ele>
        <time>2013-04-20T10:42:27Z</time>
      </trkpt>
      <trkpt lat="43.499823" lon="1.515035">
        <ele>167.9</ele>
        <time>2013-04-20T10:42:38Z</time>
      </trkpt>
      <trkpt lat="43.499876" lon="1.515140">
        <ele>167.4</ele>
        <time>2013-04-20T10:42:47Z</time>
      </trkpt>
      <trkpt lat="43.499949" lon="1.515242">
        <ele>166.9</ele>
        <time>2013-04-20T10:42:57Z</time>
      </trkpt>
      <trkpt lat="43.500022" lon="1.515353">
        <ele>166.9</ele>
        <time>2013-04-20T10:43:06Z</time>
      </trkpt>
      <trkpt lat="43.500093" lon="1.515454">
        <ele>166.4</ele>
        <time>2013-04-20T10:43:15Z</time>
      </trkpt>
      <trkpt lat="43.500163" lon="1.515552">
        <ele>166.4</ele>
        <time>2013-04-20T10:43:24Z</time>
      </trkpt>
      <trkpt lat="43.500227" lon="1.515662">
        <ele>166.4</ele>
        <time>2013-04-20T10:43:33Z</time>
      </trkpt>
      <trkpt lat="43.500296" lon="1.515759">
        <ele>166.4</ele>
        <time>2013-04-20T10:43:42Z</time>
      </trkpt>
      <trkpt lat="43.500362" lon="1.515864">
        <ele>166.0</ele>
        <time>2013-04-20T10:43:51Z</time>
      </trkpt>
      <trkpt lat="43.500440" lon="1.515952">
        <ele>164.0</ele>
        <time>2013-04-20T10:44:00Z</time>
      </trkpt>
      <trkpt lat="43.500512" lon="1.516050">
        <ele>165.5</ele>
        <time>2013-04-20T10:44:08Z</time>
      </trkpt>
      <trkpt lat="43.500584" lon="1.516150">
        <ele>164.5</ele>
        <time>2013-04-20T10:44:17Z</time>
      </trkpt>
      <trkpt lat="43.500648" lon="1.516270">
        <ele>164.0</ele>
        <time>2013-04-20T10:44:26Z</time>
      </trkpt>
      <trkpt lat="43.500725" lon="1.516376">
        <ele>165.0</ele>
        <time>2013-04-20T10:44:35Z</time>
      </trkpt>
      <trkpt lat="43.500816" lon="1.516472">
        <ele>165.5</ele>
        <time>2013-04-20T10:44:45Z</time>
      </trkpt>
      <trkpt lat="43.500909" lon="1.516552">
        <ele>164.0</ele>
        <time>2013-04-20T10:44:54Z</time>
      </trkpt>
      <trkpt lat="43.500988" lon="1.516638">
        <ele>164.5</ele>
        <time>2013-04-20T10:45:02Z</time>
      </trkpt>
      <trkpt lat="43.501058" lon="1.516737">
        <ele>164.0</ele>
        <time>2013-04-20T10:45:10Z</time>
      </trkpt>
      <trkpt lat="43.501121" lon="1.516829">
        <ele>164.5</ele>
        <time>2013-04-20T10:45:18Z</time>
      </trkpt>
      <trkpt lat="43.501188" lon="1.516934">
        <ele>163.6</ele>
        <time>2013-04-20T10:45:26Z</time>
      </trkpt>
      <trkpt lat="43.501275" lon="1.517024">
        <ele>163.6</ele>
        <time>2013-04-20T10:45:34Z</time>
      </trkpt>
      <trkpt lat="43.501364" lon="1.517099">
        <ele>164.5</ele>
        <time>2013-04-20T10:45:43Z</time>
      </trkpt>
      <trkpt lat="43.501433" lon="1.517203">
        <ele>164.0</ele>
        <time>2013-04-20T10:45:52Z</time>
      </trkpt>
      <trkpt lat="43.501515" lon="1.517285">
        <ele>163.6</ele>
        <time>2013-04-20T10:46:01Z</time>
      </trkpt>
      <trkpt lat="43.501592" lon="1.517386">
        <ele>163.1</ele>
        <time>2013-04-20T10:46:11Z</time>
      </trkpt>
      <trkpt lat="43.501673" lon="1.517489">
        <ele>165.0</ele>
        <time>2013-04-20T10:46:20Z</time>
      </trkpt>
      <trkpt lat="43.501753" lon="1.517585">
        <ele>163.1</ele>
        <time>2013-04-20T10:46:29Z</time>
      </trkpt>
      <trkpt lat="43.501839" lon="1.517664">
        <ele>164.0</ele>
        <time>2013-04-20T10:46:38Z</time>
      </trkpt>
      <trkpt lat="43.501913" lon="1.517756">
        <ele>162.6</ele>
        <time>2013-04-20T10:46:47Z</time>
      </trkpt>
      <trkpt lat="43.501993" lon="1.517846">
        <ele>162.6</ele>
        <time>2013-04-20T10:46:56Z</time>
      </trkpt>
      <trkpt lat="43.502075" lon="1.517933">
        <ele>162.6</ele>
        <time>2013-04-20T10:47:05Z</time>
      </trkpt>
      <trkpt lat="43.502166" lon="1.517992">
        <ele>162.1</ele>
        <time>2013-04-20T10:47:14Z</time>
      </trkpt>
      <trkpt lat="43.502256" lon="1.518068">
        <ele>162.1</ele>
        <time>2013-04-20T10:47:23Z</time>
      </trkpt>
      <trkpt lat="43.502364" lon="1.518083">
        <ele>160.7</ele>
        <time>2013-04-20T10:47:33Z</time>
      </trkpt>
      <trkpt lat="43.502463" lon="1.518154">
        <ele>160.7</ele>
        <time>2013-04-20T10:47:43Z</time>
      </trkpt>
      <trkpt lat="43.502566" lon="1.518189">
        <ele>159.7</ele>
        <time>2013-04-20T10:47:52Z</time>
      </trkpt>
      <trkpt lat="43.502673" lon="1.518233">
        <ele>160.7</ele>
        <time>2013-04-20T10:48:01Z</time>
      </trkpt>
      <trkpt lat="43.502765" lon="1.518311">
        <ele>161.6</ele>
        <time>2013-04-20T10:48:10Z</time>
      </trkpt>
      <trkpt lat="43.502844" lon="1.518420">
        <ele>160.7</ele>
        <time>2013-04-20T10:48:19Z</time>
      </trkpt>
      <trkpt lat="43.502929" lon="1.518533">
        <ele>160.7</ele>
        <time>2013-04-20T10:48:28Z</time>
      </trkpt>
      <trkpt lat="43.502994" lon="1.518662">
        <ele>162.1</ele>
        <time>2013-04-20T10:48:37Z</time>
      </trkpt>
      <trkpt lat="43.503047" lon="1.518781">
        <ele>161.2</ele>
        <time>2013-04-20T10:48:45Z</time>
      </trkpt>
      <trkpt lat="43.503119" lon="1.518890">
        <ele>161.6</ele>
        <time>2013-04-20T10:48:54Z</time>
      </trkpt>
      <trkpt lat="43.503191" lon="1.518993">
        <ele>160.7</ele>
        <time>2013-04-20T10:49:02Z</time>
      </trkpt>
      <trkpt lat="43.503258" lon="1.519101">
        <ele>161.2</ele>
        <time>2013-04-20T10:49:11Z</time>
      </trkpt>
      <trkpt lat="43.503335" lon="1.519216">
        <ele>161.2</ele>
        <time>2013-04-20T10:49:20Z</time>
      </trkpt>
      <trkpt lat="43.503422" lon="1.519350">
        <ele>160.7</ele>
        <time>2013-04-20T10:49:30Z</time>
      </trkpt>
      <trkpt lat="43.503511" lon="1.519465">
        <ele>160.7</ele>
        <time>2013-04-20T10:49:39Z</time>
      </trkpt>
      <trkpt lat="43.503571" lon="1.519580">
        <ele>161.2</ele>
        <time>2013-04-20T10:49:49Z</time>
      </trkpt>
      <trkpt lat="43.503655" lon="1.519711">
        <ele>160.7</ele>
        <time>2013-04-20T10:49:58Z</time>
      </trkpt>
      <trkpt lat="43.503712" lon="1.519833">
        <ele>160.2</ele>
        <time>2013-04-20T10:50:08Z</time>
      </trkpt>
      <trkpt lat="43.503787" lon="1.519948">
        <ele>160.2</ele>
        <time>2013-04-20T10:50:18Z</time>
      </trkpt>
      <trkpt lat="43.503862" lon="1.520082">
        <ele>160.2</ele>
        <time>2013-04-20T10:50:28Z</time>
      </trkpt>
      <trkpt lat="43.503928" lon="1.520195">
        <ele>159.7</ele>
        <time>2013-04-20T10:50:37Z</time>
      </trkpt>
      <trkpt lat="43.503984" lon="1.520311">
        <ele>160.2</ele>
        <time>2013-04-20T10:50:46Z</time>
      </trkpt>
      <trkpt lat="43.504051" lon="1.520432">
        <ele>160.7</ele>
        <time>2013-04-20T10:50:55Z</time>
      </trkpt>
      <trkpt lat="43.504104" lon="1.520550">
        <ele>160.2</ele>
        <time>2013-04-20T10:51:04Z</time>
      </trkpt>
      <trkpt lat="43.504158" lon="1.520698">
        <ele>159.7</ele>
        <time>2013-04-20T10:51:20Z</time>
      </trkpt>
      <trkpt lat="43.504209" lon="1.520813">
        <ele>160.2</ele>
        <time>2013-04-20T10:51:29Z</time>
      </trkpt>
      <trkpt lat="43.504254" lon="1.520946">
        <ele>159.7</ele>
        <time>2013-04-20T10:51:41Z</time>
      </trkpt>
      <trkpt lat="43.504307" lon="1.521068">
        <ele>160.2</ele>
        <time>2013-04-20T10:51:52Z</time>
      </trkpt>
      <trkpt lat="43.504364" lon="1.521222">
        <ele>160.7</ele>
        <time>2013-04-20T10:52:28Z</time>
        <name>Saint-Jauzy</name>
      </trkpt>
      <trkpt lat="43.504406" lon="1.521209">
        <ele>161.2</ele>
        <time>2013-04-20T10:53:41Z</time>
      </trkpt>
      <trkpt lat="43.504446" lon="1.521122">
        <ele>160.7</ele>
        <time>2013-04-20T10:54:42Z</time>
      </trkpt>
      <trkpt lat="43.504544" lon="1.521017">
        <ele>161.2</ele>
        <time>2013-04-20T10:55:02Z</time>
      </trkpt>
      <trkpt lat="43.504642" lon="1.520905">
        <ele>161.6</ele>
        <time>2013-04-20T10:55:16Z</time>
      </trkpt>
      <trkpt lat="43.504750" lon="1.520812">
        <ele>161.2</ele>
        <time>2013-04-20T10:55:31Z</time>
      </trkpt>
      <trkpt lat="43.504846" lon="1.520733">
        <ele>160.7</ele>
        <time>2013-04-20T10:55:44Z</time>
      </trkpt>
      <trkpt lat="43.504956" lon="1.520658">
        <ele>159.7</ele>
        <time>2013-04-20T10:55:55Z</time>
      </trkpt>
      <trkpt lat="43.505076" lon="1.520567">
        <ele>160.7</ele>
        <time>2013-04-20T10:56:07Z</time>
      </trkpt>
      <trkpt lat="43.505194" lon="1.520518">
        <ele>160.7</ele>
        <time>2013-04-20T10:56:19Z</time>
      </trkpt>
      <trkpt lat="43.505332" lon="1.520457">
        <ele>159.7</ele>
        <time>2013-04-20T10:56:32Z</time>
      </trkpt>
      <trkpt lat="43.505488" lon="1.520431">
        <ele>160.7</ele>
        <time>2013-04-20T10:56:44Z</time>
      </trkpt>
      <trkpt lat="43.505621" lon="1.520433">
        <ele>160.2</ele>
        <time>2013-04-20T10:56:55Z</time>
      </trkpt>
      <trkpt lat="43.505743" lon="1.520396">
        <ele>160.7</ele>
        <time>2013-04-20T10:57:08Z</time>
      </trkpt>
      <trkpt lat="43.505919" lon="1.520369">
        <ele>160.7</ele>
        <time>2013-04-20T10:57:24Z</time>
      </trkpt>
      <trkpt lat="43.506074" lon="1.520349">
        <ele>160.2</ele>
        <time>2013-04-20T10:57:40Z</time>
      </trkpt>
      <trkpt lat="43.506222" lon="1.520313">
        <ele>160.7</ele>
        <time>2013-04-20T10:57:54Z</time>
      </trkpt>
      <trkpt lat="43.506369" lon="1.520305">
        <ele>161.2</ele>
        <time>2013-04-20T10:58:10Z</time>
      </trkpt>
      <trkpt lat="43.506506" lon="1.520287">
        <ele>160.7</ele>
        <time>2013-04-20T10:58:22Z</time>
      </trkpt>
      <trkpt lat="43.506607" lon="1.520265">
        <ele>160.7</ele>
        <time>2013-04-20T10:58:33Z</time>
      </trkpt>
      <trkpt lat="43.506727" lon="1.520242">
        <ele>161.2</ele>
        <time>2013-04-20T10:58:46Z</time>
      </trkpt>
      <trkpt lat="43.506841" lon="1.520198">
        <ele>160.7</ele>
        <time>2013-04-20T10:58:57Z</time>
      </trkpt>
      <trkpt lat="43.506959" lon="1.520122">
        <ele>160.7</ele>
        <time>2013-04-20T10:59:10Z</time>
      </trkpt>
      <trkpt lat="43.507067" lon="1.520052">
        <ele>161.2</ele>
        <time>2013-04-20T10:59:21Z</time>
      </trkpt>
      <trkpt lat="43.507175" lon="1.519955">
        <ele>160.7</ele>
        <time>2013-04-20T10:59:32Z</time>
      </trkpt>
      <trkpt lat="43.507282" lon="1.519853">
        <ele>160.2</ele>
        <time>2013-04-20T10:59:43Z</time>
      </trkpt>
      <trkpt lat="43.507384" lon="1.519760">
        <ele>160.2</ele>
        <time>2013-04-20T10:59:54Z</time>
      </trkpt>
      <trkpt lat="43.507479" lon="1.519678">
        <ele>160.2</ele>
        <time>2013-04-20T11:00:05Z</time>
      </trkpt>
      <trkpt lat="43.507586" lon="1.519566">
        <ele>160.7</ele>
        <time>2013-04-20T11:00:16Z</time>
      </trkpt>
      <trkpt lat="43.507685" lon="1.519453">
        <ele>161.2</ele>
        <time>2013-04-20T11:00:27Z</time>
      </trkpt>
      <trkpt lat="43.507774" lon="1.519358">
        <ele>159.2</ele>
        <time>2013-04-20T11:00:37Z</time>
      </trkpt>
      <trkpt lat="43.507862" lon="1.519254">
        <ele>160.2</ele>
        <time>2013-04-20T11:00:47Z</time>
      </trkpt>
      <trkpt lat="43.507944" lon="1.519153">
        <ele>159.7</ele>
        <time>2013-04-20T11:00:56Z</time>
      </trkpt>
      <trkpt lat="43.508038" lon="1.519045">
        <ele>160.7</ele>
        <time>2013-04-20T11:01:06Z</time>
      </trkpt>
      <trkpt lat="43.508134" lon="1.518939">
        <ele>160.2</ele>
        <time>2013-04-20T11:01:17Z</time>
      </trkpt>
      <trkpt lat="43.508214" lon="1.518834">
        <ele>160.7</ele>
        <time>2013-04-20T11:01:27Z</time>
      </trkpt>
      <trkpt lat="43.508315" lon="1.518718">
        <ele>159.7</ele>
        <time>2013-04-20T11:01:37Z</time>
      </trkpt>
      <trkpt lat="43.508410" lon="1.518606">
        <ele>159.7</ele>
        <time>2013-04-20T11:01:47Z</time>
      </trkpt>
      <trkpt lat="43.508507" lon="1.518505">
        <ele>160.2</ele>
        <time>2013-04-20T11:01:57Z</time>
      </trkpt>
      <trkpt lat="43.508589" lon="1.518402">
        <ele>159.7</ele>
        <time>2013-04-20T11:02:07Z</time>
      </trkpt>
      <trkpt lat="43.508668" lon="1.518315">
        <ele>159.7</ele>
        <time>2013-04-20T11:02:16Z</time>
      </trkpt>
      <trkpt lat="43.508770" lon="1.518209">
        <ele>160.7</ele>
        <time>2013-04-20T11:02:28Z</time>
      </trkpt>
      <trkpt lat="43.508866" lon="1.518117">
        <ele>160.7</ele>
        <time>2013-04-20T11:02:38Z</time>
      </trkpt>
      <trkpt lat="43.508969" lon="1.518034">
        <ele>160.2</ele>
        <time>2013-04-20T11:02:47Z</time>
      </trkpt>
      <trkpt lat="43.509054" lon="1.517938">
        <ele>161.6</ele>
        <time>2013-04-20T11:02:57Z</time>
      </trkpt>
      <trkpt lat="43.509147" lon="1.517840">
        <ele>162.1</ele>
        <time>2013-04-20T11:03:08Z</time>
      </trkpt>
      <trkpt lat="43.509256" lon="1.517749">
        <ele>160.2</ele>
        <time>2013-04-20T11:03:22Z</time>
      </trkpt>
      <trkpt lat="43.509373" lon="1.517663">
        <ele>159.2</ele>
        <time>2013-04-20T11:03:33Z</time>
      </trkpt>
      <trkpt lat="43.509502" lon="1.517577">
        <ele>159.7</ele>
        <time>2013-04-20T11:03:44Z</time>
      </trkpt>
      <trkpt lat="43.509628" lon="1.517512">
        <ele>159.2</ele>
        <time>2013-04-20T11:03:55Z</time>
      </trkpt>
      <trkpt lat="43.509758" lon="1.517477">
        <ele>159.7</ele>
        <time>2013-04-20T11:04:07Z</time>
      </trkpt>
      <trkpt lat="43.509901" lon="1.517421">
        <ele>159.2</ele>
        <time>2013-04-20T11:04:19Z</time>
      </trkpt>
      <trkpt lat="43.510039" lon="1.517361">
        <ele>159.2</ele>
        <time>2013-04-20T11:04:31Z</time>
      </trkpt>
      <trkpt lat="43.510164" lon="1.517326">
        <ele>159.2</ele>
        <time>2013-04-20T11:04:41Z</time>
      </trkpt>
      <trkpt lat="43.510294" lon="1.517283">
        <ele>159.2</ele>
        <time>2013-04-20T11:04:53Z</time>
      </trkpt>
      <trkpt lat="43.510436" lon="1.517227">
        <ele>159.2</ele>
        <time>2013-04-20T11:05:07Z</time>
      </trkpt>
      <trkpt lat="43.510577" lon="1.517208">
        <ele>159.2</ele>
        <time>2013-04-20T11:05:17Z</time>
      </trkpt>
      <trkpt lat="43.510698" lon="1.517225">
        <ele>159.2</ele>
        <time>2013-04-20T11:05:26Z</time>
      </trkpt>
      <trkpt lat="43.510804" lon="1.517215">
        <ele>159.2</ele>
        <time>2013-04-20T11:05:37Z</time>
      </trkpt>
      <trkpt lat="43.510892" lon="1.517227">
        <ele>159.7</ele>
        <time>2013-04-20T11:05:50Z</time>
        <name>Ecluse de Vic</name>
      </trkpt>
      <trkpt lat="43.510906" lon="1.517047">
        <ele>159.2</ele>
        <time>2013-04-20T11:07:38Z</time>
      </trkpt>
      <trkpt lat="43.510989" lon="1.516963">
        <ele>157.8</ele>
        <time>2013-04-20T11:07:49Z</time>
      </trkpt>
      <trkpt lat="43.511093" lon="1.516957">
        <ele>161.2</ele>
        <time>2013-04-20T11:08:00Z</time>
      </trkpt>
      <trkpt lat="43.511197" lon="1.516958">
        <ele>160.7</ele>
        <time>2013-04-20T11:08:10Z</time>
      </trkpt>
      <trkpt lat="43.511286" lon="1.516911">
        <ele>158.3</ele>
        <time>2013-04-20T11:08:21Z</time>
      </trkpt>
      <trkpt lat="43.511416" lon="1.516871">
        <ele>157.3</ele>
        <time>2013-04-20T11:08:31Z</time>
      </trkpt>
      <trkpt lat="43.511520" lon="1.516835">
        <ele>158.3</ele>
        <time>2013-04-20T11:08:41Z</time>
      </trkpt>
      <trkpt lat="43.511630" lon="1.516799">
        <ele>158.8</ele>
        <time>2013-04-20T11:08:52Z</time>
      </trkpt>
      <trkpt lat="43.511734" lon="1.516763">
        <ele>160.2</ele>
        <time>2013-04-20T11:09:02Z</time>
      </trkpt>
      <trkpt lat="43.511837" lon="1.516743">
        <ele>159.2</ele>
        <time>2013-04-20T11:09:12Z</time>
      </trkpt>
      <trkpt lat="43.511950" lon="1.516703">
        <ele>158.3</ele>
        <time>2013-04-20T11:09:22Z</time>
      </trkpt>
      <trkpt lat="43.512063" lon="1.516703">
        <ele>158.3</ele>
        <time>2013-04-20T11:09:33Z</time>
      </trkpt>
      <trkpt lat="43.512208" lon="1.516672">
        <ele>158.8</ele>
        <time>2013-04-20T11:09:46Z</time>
      </trkpt>
      <trkpt lat="43.512338" lon="1.516621">
        <ele>157.8</ele>
        <time>2013-04-20T11:09:58Z</time>
      </trkpt>
      <trkpt lat="43.512495" lon="1.516586">
        <ele>158.3</ele>
        <time>2013-04-20T11:10:12Z</time>
      </trkpt>
      <trkpt lat="43.512614" lon="1.516548">
        <ele>156.8</ele>
        <time>2013-04-20T11:10:23Z</time>
      </trkpt>
      <trkpt lat="43.512747" lon="1.516502">
        <ele>158.3</ele>
        <time>2013-04-20T11:10:36Z</time>
      </trkpt>
      <trkpt lat="43.512864" lon="1.516474">
        <ele>158.3</ele>
        <time>2013-04-20T11:10:47Z</time>
      </trkpt>
      <trkpt lat="43.512987" lon="1.516444">
        <ele>157.8</ele>
        <time>2013-04-20T11:10:59Z</time>
      </trkpt>
      <trkpt lat="43.513140" lon="1.516396">
        <ele>158.3</ele>
        <time>2013-04-20T11:11:11Z</time>
      </trkpt>
      <trkpt lat="43.513270" lon="1.516346">
        <ele>156.8</ele>
        <time>2013-04-20T11:11:22Z</time>
      </trkpt>
      <trkpt lat="43.513380" lon="1.516314">
        <ele>157.3</ele>
        <time>2013-04-20T11:11:33Z</time>
      </trkpt>
      <trkpt lat="43.513509" lon="1.516259">
        <ele>157.3</ele>
        <time>2013-04-20T11:11:45Z</time>
      </trkpt>
      <trkpt lat="43.513619" lon="1.516189">
        <ele>157.8</ele>
        <time>2013-04-20T11:11:56Z</time>
      </trkpt>
      <trkpt lat="43.513761" lon="1.516139">
        <ele>156.4</ele>
        <time>2013-04-20T11:12:08Z</time>
      </trkpt>
      <trkpt lat="43.513876" lon="1.516097">
        <ele>155.9</ele>
        <time>2013-04-20T11:12:19Z</time>
      </trkpt>
      <trkpt lat="43.513996" lon="1.516054">
        <ele>156.8</ele>
        <time>2013-04-20T11:12:30Z</time>
      </trkpt>
      <trkpt lat="43.514131" lon="1.516002">
        <ele>156.4</ele>
        <time>2013-04-20T11:12:42Z</time>
      </trkpt>
      <trkpt lat="43.514284" lon="1.515998">
        <ele>156.4</ele>
        <time>2013-04-20T11:12:56Z</time>
      </trkpt>
      <trkpt lat="43.514466" lon="1.516041">
        <ele>156.8</ele>
        <time>2013-04-20T11:13:09Z</time>
      </trkpt>
      <trkpt lat="43.514602" lon="1.516119">
        <ele>155.9</ele>
        <time>2013-04-20T11:13:21Z</time>
      </trkpt>
      <trkpt lat="43.514727" lon="1.516235">
        <ele>155.9</ele>
        <time>2013-04-20T11:13:34Z</time>
      </trkpt>
      <trkpt lat="43.514818" lon="1.516335">
        <ele>156.4</ele>
        <time>2013-04-20T11:13:45Z</time>
      </trkpt>
      <trkpt lat="43.514932" lon="1.516501">
        <ele>157.3</ele>
        <time>2013-04-20T11:13:59Z</time>
      </trkpt>
      <trkpt lat="43.515018" lon="1.516637">
        <ele>157.3</ele>
        <time>2013-04-20T11:14:11Z</time>
      </trkpt>
      <trkpt lat="43.515087" lon="1.516796">
        <ele>156.8</ele>
        <time>2013-04-20T11:14:25Z</time>
      </trkpt>
      <trkpt lat="43.515195" lon="1.516987">
        <ele>157.3</ele>
        <time>2013-04-20T11:14:37Z</time>
      </trkpt>
      <trkpt lat="43.515236" lon="1.517199">
        <ele>156.8</ele>
        <time>2013-04-20T11:14:50Z</time>
      </trkpt>
      <trkpt lat="43.515239" lon="1.517332">
        <ele>156.8</ele>
        <time>2013-04-20T11:15:01Z</time>
      </trkpt>
      <trkpt lat="43.515264" lon="1.517528">
        <ele>156.8</ele>
        <time>2013-04-20T11:15:15Z</time>
      </trkpt>
      <trkpt lat="43.515219" lon="1.517742">
        <ele>156.8</ele>
        <time>2013-04-20T11:15:30Z</time>
      </trkpt>
      <trkpt lat="43.515180" lon="1.517955">
        <ele>156.4</ele>
        <time>2013-04-20T11:15:44Z</time>
      </trkpt>
      <trkpt lat="43.515158" lon="1.518189">
        <ele>156.4</ele>
        <time>2013-04-20T11:15:58Z</time>
      </trkpt>
      <trkpt lat="43.515117" lon="1.518433">
        <ele>157.3</ele>
        <time>2013-04-20T11:16:14Z</time>
      </trkpt>
      <trkpt lat="43.515112" lon="1.518660">
        <ele>158.3</ele>
        <time>2013-04-20T11:16:29Z</time>
      </trkpt>
      <trkpt lat="43.515136" lon="1.518869">
        <ele>158.3</ele>
        <time>2013-04-20T11:16:45Z</time>
      </trkpt>
      <trkpt lat="43.515199" lon="1.519055">
        <ele>157.8</ele>
        <time>2013-04-20T11:16:58Z</time>
      </trkpt>
      <trkpt lat="43.515297" lon="1.519215">
        <ele>157.8</ele>
        <time>2013-04-20T11:17:09Z</time>
      </trkpt>
      <trkpt lat="43.515406" lon="1.519359">
        <ele>157.3</ele>
        <time>2013-04-20T11:17:23Z</time>
      </trkpt>
      <trkpt lat="43.515500" lon="1.519510">
        <ele>156.4</ele>
        <time>2013-04-20T11:17:34Z</time>
      </trkpt>
      <trkpt lat="43.515625" lon="1.519644">
        <ele>155.9</ele>
        <time>2013-04-20T11:17:45Z</time>
      </trkpt>
      <trkpt lat="43.515724" lon="1.519773">
        <ele>156.8</ele>
        <time>2013-04-20T11:17:56Z</time>
      </trkpt>
      <trkpt lat="43.515836" lon="1.519896">
        <ele>156.8</ele>
        <time>2013-04-20T11:18:09Z</time>
      </trkpt>
      <trkpt lat="43.515944" lon="1.520011">
        <ele>156.8</ele>
        <time>2013-04-20T11:18:20Z</time>
      </trkpt>
      <trkpt lat="43.516064" lon="1.520114">
        <ele>156.8</ele>
        <time>2013-04-20T11:18:32Z</time>
      </trkpt>
      <trkpt lat="43.516193" lon="1.520195">
        <ele>156.8</ele>
        <time>2013-04-20T11:18:45Z</time>
      </trkpt>
      <trkpt lat="43.516345" lon="1.520188">
        <ele>156.4</ele>
        <time>2013-04-20T11:18:59Z</time>
      </trkpt>
      <trkpt lat="43.516530" lon="1.520152">
        <ele>156.8</ele>
        <time>2013-04-20T11:19:12Z</time>
      </trkpt>
      <trkpt lat="43.516662" lon="1.520103">
        <ele>157.3</ele>
        <time>2013-04-20T11:19:25Z</time>
      </trkpt>
      <trkpt lat="43.516806" lon="1.520029">
        <ele>155.9</ele>
        <time>2013-04-20T11:19:39Z</time>
      </trkpt>
      <trkpt lat="43.516946" lon="1.519959">
        <ele>155.9</ele>
        <time>2013-04-20T11:19:52Z</time>
      </trkpt>
      <trkpt lat="43.517072" lon="1.519864">
        <ele>155.4</ele>
        <time>2013-04-20T11:20:04Z</time>
      </trkpt>
      <trkpt lat="43.517214" lon="1.519765">
        <ele>155.9</ele>
        <time>2013-04-20T11:20:24Z</time>
      </trkpt>
      <trkpt lat="43.517356" lon="1.519673">
        <ele>155.9</ele>
        <time>2013-04-20T11:20:38Z</time>
      </trkpt>
      <trkpt lat="43.517494" lon="1.519567">
        <ele>155.9</ele>
        <time>2013-04-20T11:20:53Z</time>
      </trkpt>
      <trkpt lat="43.517629" lon="1.519477">
        <ele>155.9</ele>
        <time>2013-04-20T11:21:05Z</time>
      </trkpt>
      <trkpt lat="43.517756" lon="1.519433">
        <ele>156.4</ele>
        <time>2013-04-20T11:21:17Z</time>
      </trkpt>
      <trkpt lat="43.517905" lon="1.519376">
        <ele>154.9</ele>
        <time>2013-04-20T11:22:03Z</time>
      </trkpt>
      <trkpt lat="43.518011" lon="1.519339">
        <ele>153.9</ele>
        <time>2013-04-20T11:22:14Z</time>
      </trkpt>
      <trkpt lat="43.518122" lon="1.519300">
        <ele>153.0</ele>
        <time>2013-04-20T11:22:25Z</time>
      </trkpt>
      <trkpt lat="43.518244" lon="1.519302">
        <ele>153.9</ele>
        <time>2013-04-20T11:22:39Z</time>
      </trkpt>
      <trkpt lat="43.518380" lon="1.519321">
        <ele>153.9</ele>
        <time>2013-04-20T11:22:53Z</time>
      </trkpt>
      <trkpt lat="43.518520" lon="1.519368">
        <ele>153.9</ele>
        <time>2013-04-20T11:23:09Z</time>
      </trkpt>
      <trkpt lat="43.518656" lon="1.519424">
        <ele>153.5</ele>
        <time>2013-04-20T11:23:21Z</time>
      </trkpt>
      <trkpt lat="43.518799" lon="1.519457">
        <ele>153.5</ele>
        <time>2013-04-20T11:23:34Z</time>
      </trkpt>
      <trkpt lat="43.518922" lon="1.519526">
        <ele>153.5</ele>
        <time>2013-04-20T11:23:46Z</time>
      </trkpt>
      <trkpt lat="43.519054" lon="1.519578">
        <ele>154.4</ele>
        <time>2013-04-20T11:23:59Z</time>
      </trkpt>
      <trkpt lat="43.519189" lon="1.519643">
        <ele>154.4</ele>
        <time>2013-04-20T11:24:11Z</time>
      </trkpt>
      <trkpt lat="43.519349" lon="1.519723">
        <ele>154.9</ele>
        <time>2013-04-20T11:24:26Z</time>
      </trkpt>
      <trkpt lat="43.519497" lon="1.519774">
        <ele>154.9</ele>
        <time>2013-04-20T11:24:40Z</time>
      </trkpt>
      <trkpt lat="43.519641" lon="1.519778">
        <ele>155.9</ele>
        <time>2013-04-20T11:24:53Z</time>
      </trkpt>
      <trkpt lat="43.519845" lon="1.519778">
        <ele>155.9</ele>
        <time>2013-04-20T11:25:08Z</time>
      </trkpt>
      <trkpt lat="43.520004" lon="1.519736">
        <ele>156.4</ele>
        <time>2013-04-20T11:25:21Z</time>
      </trkpt>
      <trkpt lat="43.520159" lon="1.519721">
        <ele>156.4</ele>
        <time>2013-04-20T11:25:37Z</time>
      </trkpt>
      <trkpt lat="43.520291" lon="1.519632">
        <ele>155.4</ele>
        <time>2013-04-20T11:25:50Z</time>
      </trkpt>
      <trkpt lat="43.520429" lon="1.519536">
        <ele>155.4</ele>
        <time>2013-04-20T11:26:03Z</time>
      </trkpt>
      <trkpt lat="43.520571" lon="1.519460">
        <ele>155.4</ele>
        <time>2013-04-20T11:26:18Z</time>
      </trkpt>
      <trkpt lat="43.520677" lon="1.519383">
        <ele>153.9</ele>
        <time>2013-04-20T11:26:29Z</time>
      </trkpt>
      <trkpt lat="43.520779" lon="1.519304">
        <ele>154.9</ele>
        <time>2013-04-20T11:26:40Z</time>
      </trkpt>
      <trkpt lat="43.520872" lon="1.519235">
        <ele>154.4</ele>
        <time>2013-04-20T11:26:52Z</time>
      </trkpt>
      <trkpt lat="43.521012" lon="1.519148">
        <ele>154.9</ele>
        <time>2013-04-20T11:27:07Z</time>
      </trkpt>
      <trkpt lat="43.521157" lon="1.519102">
        <ele>153.9</ele>
        <time>2013-04-20T11:27:19Z</time>
      </trkpt>
      <trkpt lat="43.521275" lon="1.519074">
        <ele>153.9</ele>
        <time>2013-04-20T11:27:29Z</time>
      </trkpt>
      <trkpt lat="43.521435" lon="1.519080">
        <ele>153.9</ele>
        <time>2013-04-20T11:27:43Z</time>
      </trkpt>
      <trkpt lat="43.521589" lon="1.519092">
        <ele>153.5</ele>
        <time>2013-04-20T11:27:56Z</time>
      </trkpt>
      <trkpt lat="43.521779" lon="1.519084">
        <ele>153.5</ele>
        <time>2013-04-20T11:28:12Z</time>
      </trkpt>
      <trkpt lat="43.521966" lon="1.519151">
        <ele>153.5</ele>
        <time>2013-04-20T11:28:33Z</time>
      </trkpt>
      <trkpt lat="43.522134" lon="1.519079">
        <ele>152.5</ele>
        <time>2013-04-20T11:28:48Z</time>
      </trkpt>
      <trkpt lat="43.522250" lon="1.519018">
        <ele>152.5</ele>
        <time>2013-04-20T11:29:00Z</time>
      </trkpt>
      <trkpt lat="43.522365" lon="1.518960">
        <ele>152.5</ele>
        <time>2013-04-20T11:29:12Z</time>
      </trkpt>
      <trkpt lat="43.522500" lon="1.518931">
        <ele>152.0</ele>
        <time>2013-04-20T11:29:24Z</time>
      </trkpt>
      <trkpt lat="43.522638" lon="1.518887">
        <ele>152.5</ele>
        <time>2013-04-20T11:29:36Z</time>
      </trkpt>
      <trkpt lat="43.522739" lon="1.518822">
        <ele>151.5</ele>
        <time>2013-04-20T11:29:46Z</time>
      </trkpt>
      <trkpt lat="43.522846" lon="1.518750">
        <ele>151.1</ele>
        <time>2013-04-20T11:29:56Z</time>
      </trkpt>
      <trkpt lat="43.522956" lon="1.518693">
        <ele>151.5</ele>
        <time>2013-04-20T11:30:07Z</time>
      </trkpt>
      <trkpt lat="43.523066" lon="1.518608">
        <ele>151.1</ele>
        <time>2013-04-20T11:30:17Z</time>
      </trkpt>
      <trkpt lat="43.523165" lon="1.518518">
        <ele>149.6</ele>
        <time>2013-04-20T11:30:28Z</time>
      </trkpt>
      <trkpt lat="43.523255" lon="1.518445">
        <ele>150.6</ele>
        <time>2013-04-20T11:30:37Z</time>
      </trkpt>
      <trkpt lat="43.523346" lon="1.518368">
        <ele>150.1</ele>
        <time>2013-04-20T11:30:46Z</time>
      </trkpt>
      <trkpt lat="43.523437" lon="1.518300">
        <ele>150.1</ele>
        <time>2013-04-20T11:30:55Z</time>
      </trkpt>
      <trkpt lat="43.523533" lon="1.518240">
        <ele>149.1</ele>
        <time>2013-04-20T11:31:06Z</time>
        <name>Ecluse de Castanet</name>
      </trkpt>
      <trkpt lat="43.523564" lon="1.518183">
        <ele>152.5</ele>
        <time>2013-04-20T12:04:13Z</time>
      </trkpt>
      <trkpt lat="43.523411" lon="1.517907">
        <ele>153.5</ele>
        <time>2013-04-20T12:04:35Z</time>
      </trkpt>
      <trkpt lat="43.523277" lon="1.517759">
        <ele>154.4</ele>
        <time>2013-04-20T12:04:48Z</time>
      </trkpt>
      <trkpt lat="43.523129" lon="1.517653">
        <ele>154.4</ele>
        <time>2013-04-20T12:05:01Z</time>
      </trkpt>
      <trkpt lat="43.522995" lon="1.517623">
        <ele>153.5</ele>
        <time>2013-04-20T12:05:10Z</time>
      </trkpt>
      <trkpt lat="43.522884" lon="1.517583">
        <ele>153.9</ele>
        <time>2013-04-20T12:05:19Z</time>
      </trkpt>
      <trkpt lat="43.522755" lon="1.517561">
        <ele>153.9</ele>
        <time>2013-04-20T12:05:31Z</time>
      </trkpt>
      <trkpt lat="43.522586" lon="1.517531">
        <ele>153.5</ele>
        <time>2013-04-20T12:05:46Z</time>
      </trkpt>
      <trkpt lat="43.522439" lon="1.517491">
        <ele>153.5</ele>
        <time>2013-04-20T12:05:58Z</time>
      </trkpt>
      <trkpt lat="43.522305" lon="1.517426">
        <ele>153.0</ele>
        <time>2013-04-20T12:06:10Z</time>
      </trkpt>
      <trkpt lat="43.522188" lon="1.517382">
        <ele>153.9</ele>
        <time>2013-04-20T12:06:19Z</time>
      </trkpt>
      <trkpt lat="43.522089" lon="1.517252">
        <ele>153.0</ele>
        <time>2013-04-20T12:06:29Z</time>
      </trkpt>
      <trkpt lat="43.522006" lon="1.517098">
        <ele>152.5</ele>
        <time>2013-04-20T12:06:39Z</time>
      </trkpt>
      <trkpt lat="43.521875" lon="1.517005">
        <ele>152.5</ele>
        <time>2013-04-20T12:06:48Z</time>
      </trkpt>
      <trkpt lat="43.521762" lon="1.516997">
        <ele>153.0</ele>
        <time>2013-04-20T12:06:57Z</time>
      </trkpt>
      <trkpt lat="43.521648" lon="1.516901">
        <ele>153.0</ele>
        <time>2013-04-20T12:07:09Z</time>
      </trkpt>
      <trkpt lat="43.521478" lon="1.516861">
        <ele>153.9</ele>
        <time>2013-04-20T12:07:23Z</time>
      </trkpt>
      <trkpt lat="43.521364" lon="1.516746">
        <ele>153.9</ele>
        <time>2013-04-20T12:07:34Z</time>
      </trkpt>
      <trkpt lat="43.521180" lon="1.516538">
        <ele>153.5</ele>
        <time>2013-04-20T12:07:56Z</time>
      </trkpt>
      <trkpt lat="43.521045" lon="1.516387">
        <ele>153.9</ele>
        <time>2013-04-20T12:08:09Z</time>
      </trkpt>
      <trkpt lat="43.520942" lon="1.516263">
        <ele>154.4</ele>
        <time>2013-04-20T12:08:19Z</time>
      </trkpt>
      <trkpt lat="43.520843" lon="1.516164">
        <ele>154.9</ele>
        <time>2013-04-20T12:08:27Z</time>
      </trkpt>
      <trkpt lat="43.520735" lon="1.516059">
        <ele>153.9</ele>
        <time>2013-04-20T12:08:36Z</time>
      </trkpt>
      <trkpt lat="43.520631" lon="1.515961">
        <ele>153.9</ele>
        <time>2013-04-20T12:08:45Z</time>
      </trkpt>
      <trkpt lat="43.520523" lon="1.515864">
        <ele>153.9</ele>
        <time>2013-04-20T12:08:54Z</time>
      </trkpt>
      <trkpt lat="43.520426" lon="1.515785">
        <ele>154.9</ele>
        <time>2013-04-20T12:09:02Z</time>
      </trkpt>
      <trkpt lat="43.520317" lon="1.515718">
        <ele>153.9</ele>
        <time>2013-04-20T12:09:11Z</time>
      </trkpt>
      <trkpt lat="43.520219" lon="1.515668">
        <ele>154.9</ele>
        <time>2013-04-20T12:09:19Z</time>
      </trkpt>
      <trkpt lat="43.520121" lon="1.515643">
        <ele>154.9</ele>
        <time>2013-04-20T12:09:27Z</time>
      </trkpt>
      <trkpt lat="43.520022" lon="1.515630">
        <ele>154.4</ele>
        <time>2013-04-20T12:09:35Z</time>
      </trkpt>
      <trkpt lat="43.519910" lon="1.515609">
        <ele>154.9</ele>
        <time>2013-04-20T12:09:44Z</time>
      </trkpt>
      <trkpt lat="43.519840" lon="1.515449">
        <ele>153.9</ele>
        <time>2013-04-20T12:10:02Z</time>
      </trkpt>
      <trkpt lat="43.519733" lon="1.515166">
        <ele>153.5</ele>
        <time>2013-04-20T12:10:22Z</time>
      </trkpt>
      <trkpt lat="43.519629" lon="1.514914">
        <ele>153.9</ele>
        <time>2013-04-20T12:10:32Z</time>
      </trkpt>
      <trkpt lat="43.519563" lon="1.514736">
        <ele>153.9</ele>
        <time>2013-04-20T12:10:40Z</time>
      </trkpt>
      <trkpt lat="43.519502" lon="1.514566">
        <ele>153.5</ele>
        <time>2013-04-20T12:10:49Z</time>
      </trkpt>
      <trkpt lat="43.519469" lon="1.514411">
        <ele>153.0</ele>
        <time>2013-04-20T12:10:58Z</time>
      </trkpt>
      <trkpt lat="43.519452" lon="1.514266">
        <ele>153.5</ele>
        <time>2013-04-20T12:11:06Z</time>
      </trkpt>
      <trkpt lat="43.519441" lon="1.514095">
        <ele>153.9</ele>
        <time>2013-04-20T12:11:15Z</time>
      </trkpt>
      <trkpt lat="43.519421" lon="1.513833">
        <ele>153.5</ele>
        <time>2013-04-20T12:11:32Z</time>
      </trkpt>
      <trkpt lat="43.519457" lon="1.513561">
        <ele>153.0</ele>
        <time>2013-04-20T12:11:47Z</time>
      </trkpt>
      <trkpt lat="43.519502" lon="1.513306">
        <ele>153.0</ele>
        <time>2013-04-20T12:12:02Z</time>
      </trkpt>
      <trkpt lat="43.519564" lon="1.513114">
        <ele>153.0</ele>
        <time>2013-04-20T12:12:12Z</time>
      </trkpt>
      <trkpt lat="43.519609" lon="1.512927">
        <ele>152.5</ele>
        <time>2013-04-20T12:12:20Z</time>
      </trkpt>
      <trkpt lat="43.519556" lon="1.512770">
        <ele>153.0</ele>
        <time>2013-04-20T12:12:31Z</time>
      </trkpt>
      <trkpt lat="43.519481" lon="1.512616">
        <ele>153.0</ele>
        <time>2013-04-20T12:12:44Z</time>
      </trkpt>
      <trkpt lat="43.519434" lon="1.512460">
        <ele>153.0</ele>
        <time>2013-04-20T12:12:54Z</time>
      </trkpt>
      <trkpt lat="43.519379" lon="1.512293">
        <ele>152.5</ele>
        <time>2013-04-20T12:13:04Z</time>
      </trkpt>
      <trkpt lat="43.519309" lon="1.512084">
        <ele>153.0</ele>
        <time>2013-04-20T12:13:16Z</time>
      </trkpt>
      <trkpt lat="43.519235" lon="1.511811">
        <ele>152.0</ele>
        <time>2013-04-20T12:18:05Z</time>
      </trkpt>
      <trkpt lat="43.519274" lon="1.511645">
        <ele>152.5</ele>
        <time>2013-04-20T12:18:15Z</time>
      </trkpt>
      <trkpt lat="43.519300" lon="1.511465">
        <ele>151.5</ele>
        <time>2013-04-20T12:18:25Z</time>
      </trkpt>
      <trkpt lat="43.519270" lon="1.511311">
        <ele>151.5</ele>
        <time>2013-04-20T12:18:33Z</time>
      </trkpt>
      <trkpt lat="43.519248" lon="1.511175">
        <ele>152.0</ele>
        <time>2013-04-20T12:18:42Z</time>
      </trkpt>
      <trkpt lat="43.519215" lon="1.511033">
        <ele>152.0</ele>
        <time>2013-04-20T12:18:50Z</time>
      </trkpt>
      <trkpt lat="43.519186" lon="1.510867">
        <ele>152.0</ele>
        <time>2013-04-20T12:18:59Z</time>
      </trkpt>
      <trkpt lat="43.519152" lon="1.510693">
        <ele>152.5</ele>
        <time>2013-04-20T12:19:10Z</time>
      </trkpt>
      <trkpt lat="43.519124" lon="1.510530">
        <ele>152.0</ele>
        <time>2013-04-20T12:19:20Z</time>
      </trkpt>
      <trkpt lat="43.519104" lon="1.510390">
        <ele>152.5</ele>
        <time>2013-04-20T12:19:28Z</time>
      </trkpt>
      <trkpt lat="43.519079" lon="1.510215">
        <ele>152.0</ele>
        <time>2013-04-20T12:19:37Z</time>
      </trkpt>
      <trkpt lat="43.519051" lon="1.510046">
        <ele>151.5</ele>
        <time>2013-04-20T12:19:46Z</time>
      </trkpt>
      <trkpt lat="43.519019" lon="1.509873">
        <ele>152.0</ele>
        <time>2013-04-20T12:19:55Z</time>
      </trkpt>
      <trkpt lat="43.518999" lon="1.509729">
        <ele>152.0</ele>
        <time>2013-04-20T12:20:06Z</time>
      </trkpt>
      <trkpt lat="43.518982" lon="1.509568">
        <ele>152.0</ele>
        <time>2013-04-20T12:20:18Z</time>
      </trkpt>
      <trkpt lat="43.518979" lon="1.509399">
        <ele>151.5</ele>
        <time>2013-04-20T12:20:28Z</time>
      </trkpt>
      <trkpt lat="43.518968" lon="1.509235">
        <ele>153.0</ele>
        <time>2013-04-20T12:20:38Z</time>
      </trkpt>
      <trkpt lat="43.518954" lon="1.509069">
        <ele>152.5</ele>
        <time>2013-04-20T12:20:46Z</time>
      </trkpt>
      <trkpt lat="43.518937" lon="1.508925">
        <ele>152.5</ele>
        <time>2013-04-20T12:20:55Z</time>
      </trkpt>
      <trkpt lat="43.518898" lon="1.508739">
        <ele>153.5</ele>
        <time>2013-04-20T12:21:07Z</time>
      </trkpt>
      <trkpt lat="43.518865" lon="1.508543">
        <ele>153.5</ele>
        <time>2013-04-20T12:21:20Z</time>
      </trkpt>
      <trkpt lat="43.518855" lon="1.508331">
        <ele>153.5</ele>
        <time>2013-04-20T12:21:29Z</time>
      </trkpt>
      <trkpt lat="43.518818" lon="1.508167">
        <ele>153.0</ele>
        <time>2013-04-20T12:21:39Z</time>
      </trkpt>
      <trkpt lat="43.518789" lon="1.508014">
        <ele>152.0</ele>
        <time>2013-04-20T12:21:48Z</time>
      </trkpt>
      <trkpt lat="43.518747" lon="1.507849">
        <ele>153.0</ele>
        <time>2013-04-20T12:21:58Z</time>
      </trkpt>
      <trkpt lat="43.518719" lon="1.507693">
        <ele>153.5</ele>
        <time>2013-04-20T12:22:08Z</time>
      </trkpt>
      <trkpt lat="43.518680" lon="1.507530">
        <ele>153.5</ele>
        <time>2013-04-20T12:22:20Z</time>
      </trkpt>
      <trkpt lat="43.518662" lon="1.507352">
        <ele>153.0</ele>
        <time>2013-04-20T12:22:31Z</time>
      </trkpt>
      <trkpt lat="43.518552" lon="1.507105">
        <ele>153.5</ele>
        <time>2013-04-20T12:22:53Z</time>
      </trkpt>
      <trkpt lat="43.518492" lon="1.506947">
        <ele>153.0</ele>
        <time>2013-04-20T12:23:03Z</time>
      </trkpt>
      <trkpt lat="43.518476" lon="1.506803">
        <ele>153.5</ele>
        <time>2013-04-20T12:23:13Z</time>
      </trkpt>
      <trkpt lat="43.518447" lon="1.506656">
        <ele>152.5</ele>
        <time>2013-04-20T12:23:26Z</time>
      </trkpt>
      <trkpt lat="43.518405" lon="1.506511">
        <ele>152.5</ele>
        <time>2013-04-20T12:23:37Z</time>
      </trkpt>
      <trkpt lat="43.518346" lon="1.506345">
        <ele>153.0</ele>
        <time>2013-04-20T12:23:55Z</time>
      </trkpt>
      <trkpt lat="43.518385" lon="1.506129">
        <ele>153.5</ele>
        <time>2013-04-20T12:24:10Z</time>
      </trkpt>
      <trkpt lat="43.518402" lon="1.505961">
        <ele>152.5</ele>
        <time>2013-04-20T12:24:23Z</time>
      </trkpt>
      <trkpt lat="43.518481" lon="1.505779">
        <ele>153.5</ele>
        <time>2013-04-20T12:24:42Z</time>
      </trkpt>
      <trkpt lat="43.518517" lon="1.505600">
        <ele>153.5</ele>
        <time>2013-04-20T12:25:14Z</time>
      </trkpt>
      <trkpt lat="43.518565" lon="1.505489">
        <ele>150.6</ele>
        <time>2013-04-20T12:27:37Z</time>
      </trkpt>
      <trkpt lat="43.518493" lon="1.505359">
        <ele>152.5</ele>
        <time>2013-04-20T12:27:49Z</time>
      </trkpt>
      <trkpt lat="43.518379" lon="1.505148">
        <ele>152.5</ele>
        <time>2013-04-20T12:28:08Z</time>
      </trkpt>
      <trkpt lat="43.518236" lon="1.504729">
        <ele>153.5</ele>
        <time>2013-04-20T12:28:42Z</time>
      </trkpt>
      <trkpt lat="43.517987" lon="1.504076">
        <ele>154.4</ele>
        <time>2013-04-20T12:29:16Z</time>
      </trkpt>
      <trkpt lat="43.517875" lon="1.503760">
        <ele>154.9</ele>
        <time>2013-04-20T12:29:33Z</time>
      </trkpt>
      <trkpt lat="43.517812" lon="1.503581">
        <ele>154.9</ele>
        <time>2013-04-20T12:29:46Z</time>
      </trkpt>
      <trkpt lat="43.517768" lon="1.503458">
        <ele>153.9</ele>
        <time>2013-04-20T12:29:55Z</time>
      </trkpt>
      <trkpt lat="43.517737" lon="1.503322">
        <ele>154.4</ele>
        <time>2013-04-20T12:30:05Z</time>
      </trkpt>
      <trkpt lat="43.517693" lon="1.503186">
        <ele>155.4</ele>
        <time>2013-04-20T12:30:15Z</time>
      </trkpt>
      <trkpt lat="43.517655" lon="1.503042">
        <ele>155.4</ele>
        <time>2013-04-20T12:30:26Z</time>
      </trkpt>
      <trkpt lat="43.517568" lon="1.502812">
        <ele>155.9</ele>
        <time>2013-04-20T12:30:41Z</time>
      </trkpt>
      <trkpt lat="43.517483" lon="1.502545">
        <ele>155.9</ele>
        <time>2013-04-20T12:30:58Z</time>
      </trkpt>
      <trkpt lat="43.517416" lon="1.502363">
        <ele>156.4</ele>
        <time>2013-04-20T12:31:11Z</time>
      </trkpt>
      <trkpt lat="43.517289" lon="1.502210">
        <ele>156.4</ele>
        <time>2013-04-20T12:31:24Z</time>
      </trkpt>
      <trkpt lat="43.517267" lon="1.502065">
        <ele>156.8</ele>
        <time>2013-04-20T12:31:34Z</time>
      </trkpt>
      <trkpt lat="43.517282" lon="1.501858">
        <ele>156.4</ele>
        <time>2013-04-20T12:31:46Z</time>
      </trkpt>
      <trkpt lat="43.517253" lon="1.501720">
        <ele>155.9</ele>
        <time>2013-04-20T12:31:59Z</time>
      </trkpt>
      <trkpt lat="43.517179" lon="1.501544">
        <ele>156.8</ele>
        <time>2013-04-20T12:32:13Z</time>
      </trkpt>
      <trkpt lat="43.517112" lon="1.501379">
        <ele>156.4</ele>
        <time>2013-04-20T12:32:25Z</time>
      </trkpt>
      <trkpt lat="43.517056" lon="1.501154">
        <ele>156.8</ele>
        <time>2013-04-20T12:32:39Z</time>
      </trkpt>
      <trkpt lat="43.517017" lon="1.500926">
        <ele>156.8</ele>
        <time>2013-04-20T12:32:55Z</time>
      </trkpt>
      <trkpt lat="43.516972" lon="1.500720">
        <ele>157.3</ele>
        <time>2013-04-20T12:33:07Z</time>
      </trkpt>
      <trkpt lat="43.516923" lon="1.500546">
        <ele>156.8</ele>
        <time>2013-04-20T12:33:19Z</time>
      </trkpt>
      <trkpt lat="43.516879" lon="1.500364">
        <ele>157.3</ele>
        <time>2013-04-20T12:33:30Z</time>
      </trkpt>
      <trkpt lat="43.516819" lon="1.500189">
        <ele>157.8</ele>
        <time>2013-04-20T12:33:43Z</time>
      </trkpt>
      <trkpt lat="43.516745" lon="1.499973">
        <ele>158.8</ele>
        <time>2013-04-20T12:33:59Z</time>
      </trkpt>
      <trkpt lat="43.516674" lon="1.499747">
        <ele>158.8</ele>
        <time>2013-04-20T12:34:16Z</time>
      </trkpt>
      <trkpt lat="43.516604" lon="1.499483">
        <ele>158.8</ele>
        <time>2013-04-20T12:34:32Z</time>
      </trkpt>
      <trkpt lat="43.516569" lon="1.499289">
        <ele>159.2</ele>
        <time>2013-04-20T12:34:47Z</time>
      </trkpt>
      <trkpt lat="43.516518" lon="1.499045">
        <ele>160.2</ele>
        <time>2013-04-20T12:35:02Z</time>
      </trkpt>
      <trkpt lat="43.516495" lon="1.498803">
        <ele>160.2</ele>
        <time>2013-04-20T12:35:12Z</time>
      </trkpt>
      <trkpt lat="43.516468" lon="1.498616">
        <ele>160.2</ele>
        <time>2013-04-20T12:35:24Z</time>
      </trkpt>
      <trkpt lat="43.516423" lon="1.498359">
        <ele>167.4</ele>
        <time>2013-04-20T12:50:44Z</time>
      </trkpt>
      <trkpt lat="43.516432" lon="1.498222">
        <ele>167.9</ele>
        <time>2013-04-20T12:53:07Z</time>
      </trkpt>
      <trkpt lat="43.516495" lon="1.498105">
        <ele>166.9</ele>
        <time>2013-04-20T12:53:25Z</time>
      </trkpt>
      <trkpt lat="43.516577" lon="1.498005">
        <ele>167.9</ele>
        <time>2013-04-20T12:54:04Z</time>
      </trkpt>
      <trkpt lat="43.516755" lon="1.497896">
        <ele>168.9</ele>
        <time>2013-04-20T12:54:23Z</time>
      </trkpt>
      <trkpt lat="43.516787" lon="1.497678">
        <ele>168.9</ele>
        <time>2013-04-20T12:54:46Z</time>
      </trkpt>
      <trkpt lat="43.516866" lon="1.497450">
        <ele>170.3</ele>
        <time>2013-04-20T12:55:27Z</time>
      </trkpt>
      <trkpt lat="43.516786" lon="1.497243">
        <ele>171.2</ele>
        <time>2013-04-20T12:55:45Z</time>
      </trkpt>
      <trkpt lat="43.516678" lon="1.497110">
        <ele>170.8</ele>
        <time>2013-04-20T12:56:00Z</time>
      </trkpt>
      <trkpt lat="43.516619" lon="1.496994">
        <ele>171.2</ele>
        <time>2013-04-20T12:56:12Z</time>
        <name>Castanet-Tolosan</name>
      </trkpt>
      <trkpt lat="43.516500" lon="1.496951">
        <ele>171.7</ele>
        <time>2013-04-20T12:56:24Z</time>
      </trkpt>
      <trkpt lat="43.516374" lon="1.496992">
        <ele>169.8</ele>
        <time>2013-04-20T12:57:09Z</time>
      </trkpt>
      <trkpt lat="43.516318" lon="1.497021">
        <ele>169.8</ele>
        <time>2013-04-20T12:58:20Z</time>
      </trkpt>
      <trkpt lat="43.516210" lon="1.497098">
        <ele>167.4</ele>
        <time>2013-04-20T12:58:35Z</time>
      </trkpt>
      <trkpt lat="43.516095" lon="1.497153">
        <ele>167.9</ele>
        <time>2013-04-20T12:58:46Z</time>
      </trkpt>
      <trkpt lat="43.515988" lon="1.497152">
        <ele>168.9</ele>
        <time>2013-04-20T12:58:58Z</time>
      </trkpt>
      <trkpt lat="43.515868" lon="1.497244">
        <ele>168.4</ele>
        <time>2013-04-20T12:59:11Z</time>
      </trkpt>
      <trkpt lat="43.515731" lon="1.497357">
        <ele>167.4</ele>
        <time>2013-04-20T12:59:24Z</time>
      </trkpt>
      <trkpt lat="43.515609" lon="1.497457">
        <ele>166.4</ele>
        <time>2013-04-20T12:59:35Z</time>
      </trkpt>
      <trkpt lat="43.515418" lon="1.497540">
        <ele>167.4</ele>
        <time>2013-04-20T12:59:52Z</time>
      </trkpt>
      <trkpt lat="43.515293" lon="1.497622">
        <ele>166.9</ele>
        <time>2013-04-20T13:00:07Z</time>
      </trkpt>
      <trkpt lat="43.515095" lon="1.497673">
        <ele>166.9</ele>
        <time>2013-04-20T13:00:27Z</time>
      </trkpt>
      <trkpt lat="43.515087" lon="1.497531">
        <ele>166.4</ele>
        <time>2013-04-20T13:00:39Z</time>
      </trkpt>
      <trkpt lat="43.515063" lon="1.497384">
        <ele>166.4</ele>
        <time>2013-04-20T13:00:50Z</time>
      </trkpt>
      <trkpt lat="43.515072" lon="1.497228">
        <ele>165.5</ele>
        <time>2013-04-20T13:01:01Z</time>
      </trkpt>
      <trkpt lat="43.515071" lon="1.497078">
        <ele>165.0</ele>
        <time>2013-04-20T13:01:11Z</time>
      </trkpt>
      <trkpt lat="43.515095" lon="1.496934">
        <ele>166.0</ele>
        <time>2013-04-20T13:01:21Z</time>
      </trkpt>
      <trkpt lat="43.515108" lon="1.496775">
        <ele>166.4</ele>
        <time>2013-04-20T13:01:33Z</time>
      </trkpt>
      <trkpt lat="43.515028" lon="1.496501">
        <ele>166.9</ele>
        <time>2013-04-20T13:02:01Z</time>
      </trkpt>
      <trkpt lat="43.515041" lon="1.496310">
        <ele>166.9</ele>
        <time>2013-04-20T13:02:13Z</time>
      </trkpt>
      <trkpt lat="43.515028" lon="1.496155">
        <ele>167.9</ele>
        <time>2013-04-20T13:02:28Z</time>
      </trkpt>
      <trkpt lat="43.514959" lon="1.495932">
        <ele>168.4</ele>
        <time>2013-04-20T13:02:44Z</time>
      </trkpt>
      <trkpt lat="43.514888" lon="1.495695">
        <ele>168.4</ele>
        <time>2013-04-20T13:03:00Z</time>
      </trkpt>
      <trkpt lat="43.514863" lon="1.495465">
        <ele>168.9</ele>
        <time>2013-04-20T13:03:13Z</time>
      </trkpt>
      <trkpt lat="43.514772" lon="1.495359">
        <ele>168.9</ele>
        <time>2013-04-20T13:03:36Z</time>
        <name>Semenobren</name>
      </trkpt>
      <trkpt lat="43.514631" lon="1.495376">
        <ele>168.4</ele>
        <time>2013-04-20T13:03:53Z</time>
      </trkpt>
      <trkpt lat="43.514540" lon="1.495292">
        <ele>169.3</ele>
        <time>2013-04-20T13:04:05Z</time>
      </trkpt>
      <trkpt lat="43.514443" lon="1.495207">
        <ele>170.3</ele>
        <time>2013-04-20T13:04:18Z</time>
      </trkpt>
      <trkpt lat="43.514319" lon="1.495139">
        <ele>171.7</ele>
        <time>2013-04-20T13:04:32Z</time>
      </trkpt>
      <trkpt lat="43.514193" lon="1.495112">
        <ele>173.2</ele>
        <time>2013-04-20T13:04:46Z</time>
      </trkpt>
      <trkpt lat="43.514049" lon="1.495127">
        <ele>175.1</ele>
        <time>2013-04-20T13:05:02Z</time>
      </trkpt>
      <trkpt lat="43.513915" lon="1.495100">
        <ele>176.5</ele>
        <time>2013-04-20T13:05:16Z</time>
      </trkpt>
      <trkpt lat="43.513783" lon="1.495072">
        <ele>178.5</ele>
        <time>2013-04-20T13:05:31Z</time>
      </trkpt>
      <trkpt lat="43.513743" lon="1.494966">
        <ele>178.5</ele>
        <time>2013-04-20T13:05:46Z</time>
      </trkpt>
      <trkpt lat="43.513712" lon="1.494800">
        <ele>179.4</ele>
        <time>2013-04-20T13:05:58Z</time>
      </trkpt>
      <trkpt lat="43.513618" lon="1.494664">
        <ele>179.9</ele>
        <time>2013-04-20T13:06:11Z</time>
      </trkpt>
      <trkpt lat="43.513520" lon="1.494501">
        <ele>180.9</ele>
        <time>2013-04-20T13:06:23Z</time>
      </trkpt>
      <trkpt lat="43.513403" lon="1.494364">
        <ele>181.8</ele>
        <time>2013-04-20T13:06:34Z</time>
      </trkpt>
      <trkpt lat="43.513287" lon="1.494351">
        <ele>183.8</ele>
        <time>2013-04-20T13:06:45Z</time>
      </trkpt>
      <trkpt lat="43.513164" lon="1.494350">
        <ele>183.3</ele>
        <time>2013-04-20T13:06:57Z</time>
      </trkpt>
      <trkpt lat="43.513051" lon="1.494348">
        <ele>185.2</ele>
        <time>2013-04-20T13:07:08Z</time>
      </trkpt>
      <trkpt lat="43.512921" lon="1.494394">
        <ele>186.6</ele>
        <time>2013-04-20T13:07:21Z</time>
      </trkpt>
      <trkpt lat="43.512762" lon="1.494422">
        <ele>186.1</ele>
        <time>2013-04-20T13:07:35Z</time>
      </trkpt>
      <trkpt lat="43.512631" lon="1.494387">
        <ele>189.0</ele>
        <time>2013-04-20T13:07:47Z</time>
      </trkpt>
      <trkpt lat="43.512518" lon="1.494333">
        <ele>189.0</ele>
        <time>2013-04-20T13:07:59Z</time>
      </trkpt>
      <trkpt lat="43.512396" lon="1.494276">
        <ele>190.0</ele>
        <time>2013-04-20T13:08:12Z</time>
      </trkpt>
      <trkpt lat="43.512254" lon="1.494247">
        <ele>189.0</ele>
        <time>2013-04-20T13:08:25Z</time>
      </trkpt>
      <trkpt lat="43.512127" lon="1.494238">
        <ele>190.5</ele>
        <time>2013-04-20T13:08:38Z</time>
      </trkpt>
      <trkpt lat="43.511985" lon="1.494261">
        <ele>191.0</ele>
        <time>2013-04-20T13:08:54Z</time>
      </trkpt>
      <trkpt lat="43.511803" lon="1.494306">
        <ele>190.5</ele>
        <time>2013-04-20T13:09:09Z</time>
      </trkpt>
      <trkpt lat="43.511657" lon="1.494322">
        <ele>189.5</ele>
        <time>2013-04-20T13:09:22Z</time>
      </trkpt>
      <trkpt lat="43.511509" lon="1.494365">
        <ele>189.0</ele>
        <time>2013-04-20T13:09:35Z</time>
      </trkpt>
      <trkpt lat="43.511355" lon="1.494409">
        <ele>189.5</ele>
        <time>2013-04-20T13:09:48Z</time>
      </trkpt>
      <trkpt lat="43.511215" lon="1.494398">
        <ele>189.0</ele>
        <time>2013-04-20T13:10:00Z</time>
      </trkpt>
      <trkpt lat="43.511079" lon="1.494411">
        <ele>188.6</ele>
        <time>2013-04-20T13:10:11Z</time>
      </trkpt>
      <trkpt lat="43.510946" lon="1.494434">
        <ele>187.1</ele>
        <time>2013-04-20T13:10:22Z</time>
      </trkpt>
      <trkpt lat="43.510807" lon="1.494424">
        <ele>187.1</ele>
        <time>2013-04-20T13:10:34Z</time>
      </trkpt>
      <trkpt lat="43.510658" lon="1.494467">
        <ele>186.6</ele>
        <time>2013-04-20T13:10:44Z</time>
      </trkpt>
      <trkpt lat="43.510521" lon="1.494522">
        <ele>186.1</ele>
        <time>2013-04-20T13:10:58Z</time>
      </trkpt>
      <trkpt lat="43.510402" lon="1.494523">
        <ele>186.1</ele>
        <time>2013-04-20T13:11:10Z</time>
      </trkpt>
      <trkpt lat="43.510232" lon="1.494440">
        <ele>185.7</ele>
        <time>2013-04-20T13:11:33Z</time>
      </trkpt>
      <trkpt lat="43.510070" lon="1.494380">
        <ele>185.7</ele>
        <time>2013-04-20T13:11:48Z</time>
      </trkpt>
      <trkpt lat="43.509918" lon="1.494325">
        <ele>184.2</ele>
        <time>2013-04-20T13:12:00Z</time>
      </trkpt>
      <trkpt lat="43.509780" lon="1.494317">
        <ele>183.3</ele>
        <time>2013-04-20T13:12:18Z</time>
      </trkpt>
      <trkpt lat="43.509648" lon="1.494242">
        <ele>181.8</ele>
        <time>2013-04-20T13:12:30Z</time>
      </trkpt>
      <trkpt lat="43.509524" lon="1.494233">
        <ele>181.4</ele>
        <time>2013-04-20T13:12:41Z</time>
      </trkpt>
      <trkpt lat="43.509375" lon="1.494243">
        <ele>180.9</ele>
        <time>2013-04-20T13:12:51Z</time>
      </trkpt>
      <trkpt lat="43.509248" lon="1.494272">
        <ele>180.4</ele>
        <time>2013-04-20T13:13:02Z</time>
      </trkpt>
      <trkpt lat="43.509133" lon="1.494296">
        <ele>179.4</ele>
        <time>2013-04-20T13:13:13Z</time>
      </trkpt>
      <trkpt lat="43.508998" lon="1.494319">
        <ele>178.5</ele>
        <time>2013-04-20T13:13:25Z</time>
      </trkpt>
      <trkpt lat="43.508866" lon="1.494345">
        <ele>177.0</ele>
        <time>2013-04-20T13:13:37Z</time>
      </trkpt>
      <trkpt lat="43.508736" lon="1.494350">
        <ele>176.5</ele>
        <time>2013-04-20T13:13:48Z</time>
      </trkpt>
      <trkpt lat="43.508605" lon="1.494387">
        <ele>176.1</ele>
        <time>2013-04-20T13:13:58Z</time>
      </trkpt>
      <trkpt lat="43.508488" lon="1.494377">
        <ele>175.1</ele>
        <time>2013-04-20T13:14:08Z</time>
      </trkpt>
      <trkpt lat="43.508366" lon="1.494372">
        <ele>175.1</ele>
        <time>2013-04-20T13:14:19Z</time>
      </trkpt>
      <trkpt lat="43.508251" lon="1.494394">
        <ele>174.6</ele>
        <time>2013-04-20T13:14:31Z</time>
      </trkpt>
      <trkpt lat="43.508081" lon="1.494458">
        <ele>174.6</ele>
        <time>2013-04-20T13:14:59Z</time>
      </trkpt>
      <trkpt lat="43.507915" lon="1.494425">
        <ele>175.1</ele>
        <time>2013-04-20T13:15:10Z</time>
      </trkpt>
      <trkpt lat="43.507777" lon="1.494422">
        <ele>175.6</ele>
        <time>2013-04-20T13:15:21Z</time>
        <name>Bois de Savignol</name>
      </trkpt>
      <trkpt lat="43.507656" lon="1.494386">
        <ele>176.5</ele>
        <time>2013-04-20T13:15:32Z</time>
      </trkpt>
      <trkpt lat="43.507522" lon="1.494391">
        <ele>177.5</ele>
        <time>2013-04-20T13:15:44Z</time>
      </trkpt>
      <trkpt lat="43.507412" lon="1.494382">
        <ele>178.0</ele>
        <time>2013-04-20T13:15:59Z</time>
      </trkpt>
      <trkpt lat="43.507279" lon="1.494318">
        <ele>178.9</ele>
        <time>2013-04-20T13:16:20Z</time>
      </trkpt>
      <trkpt lat="43.507179" lon="1.494247">
        <ele>179.9</ele>
        <time>2013-04-20T13:16:33Z</time>
      </trkpt>
      <trkpt lat="43.507100" lon="1.494166">
        <ele>180.4</ele>
        <time>2013-04-20T13:16:44Z</time>
      </trkpt>
      <trkpt lat="43.506993" lon="1.494091">
        <ele>180.9</ele>
        <time>2013-04-20T13:16:55Z</time>
      </trkpt>
      <trkpt lat="43.506866" lon="1.494007">
        <ele>181.4</ele>
        <time>2013-04-20T13:17:06Z</time>
      </trkpt>
      <trkpt lat="43.506779" lon="1.493902">
        <ele>180.9</ele>
        <time>2013-04-20T13:17:17Z</time>
      </trkpt>
      <trkpt lat="43.506672" lon="1.493838">
        <ele>179.9</ele>
        <time>2013-04-20T13:17:28Z</time>
      </trkpt>
      <trkpt lat="43.506568" lon="1.493786">
        <ele>179.9</ele>
        <time>2013-04-20T13:17:38Z</time>
      </trkpt>
      <trkpt lat="43.506454" lon="1.493775">
        <ele>178.9</ele>
        <time>2013-04-20T13:17:48Z</time>
      </trkpt>
      <trkpt lat="43.506345" lon="1.493777">
        <ele>178.9</ele>
        <time>2013-04-20T13:18:01Z</time>
      </trkpt>
      <trkpt lat="43.506203" lon="1.493818">
        <ele>178.9</ele>
        <time>2013-04-20T13:18:13Z</time>
      </trkpt>
      <trkpt lat="43.506070" lon="1.493849">
        <ele>178.5</ele>
        <time>2013-04-20T13:18:25Z</time>
      </trkpt>
      <trkpt lat="43.505962" lon="1.493862">
        <ele>178.5</ele>
        <time>2013-04-20T13:18:36Z</time>
      </trkpt>
      <trkpt lat="43.505804" lon="1.493904">
        <ele>178.5</ele>
        <time>2013-04-20T13:18:48Z</time>
      </trkpt>
      <trkpt lat="43.505671" lon="1.493922">
        <ele>180.4</ele>
        <time>2013-04-20T13:18:58Z</time>
      </trkpt>
      <trkpt lat="43.505524" lon="1.493960">
        <ele>180.9</ele>
        <time>2013-04-20T13:19:09Z</time>
      </trkpt>
      <trkpt lat="43.505407" lon="1.493926">
        <ele>181.4</ele>
        <time>2013-04-20T13:19:19Z</time>
      </trkpt>
      <trkpt lat="43.505302" lon="1.493886">
        <ele>181.4</ele>
        <time>2013-04-20T13:19:28Z</time>
      </trkpt>
      <trkpt lat="43.505207" lon="1.493824">
        <ele>182.8</ele>
        <time>2013-04-20T13:19:37Z</time>
      </trkpt>
      <trkpt lat="43.505098" lon="1.493768">
        <ele>183.3</ele>
        <time>2013-04-20T13:19:47Z</time>
      </trkpt>
      <trkpt lat="43.504994" lon="1.493737">
        <ele>184.7</ele>
        <time>2013-04-20T13:19:56Z</time>
      </trkpt>
      <trkpt lat="43.504884" lon="1.493692">
        <ele>186.1</ele>
        <time>2013-04-20T13:20:06Z</time>
      </trkpt>
      <trkpt lat="43.504788" lon="1.493638">
        <ele>187.1</ele>
        <time>2013-04-20T13:20:16Z</time>
      </trkpt>
      <trkpt lat="43.504685" lon="1.493601">
        <ele>189.0</ele>
        <time>2013-04-20T13:20:26Z</time>
      </trkpt>
      <trkpt lat="43.504571" lon="1.493562">
        <ele>190.0</ele>
        <time>2013-04-20T13:20:37Z</time>
      </trkpt>
      <trkpt lat="43.504466" lon="1.493529">
        <ele>192.4</ele>
        <time>2013-04-20T13:20:47Z</time>
      </trkpt>
      <trkpt lat="43.504356" lon="1.493494">
        <ele>193.4</ele>
        <time>2013-04-20T13:20:57Z</time>
      </trkpt>
      <trkpt lat="43.504239" lon="1.493464">
        <ele>193.8</ele>
        <time>2013-04-20T13:21:07Z</time>
      </trkpt>
      <trkpt lat="43.504122" lon="1.493437">
        <ele>194.8</ele>
        <time>2013-04-20T13:21:17Z</time>
      </trkpt>
      <trkpt lat="43.504019" lon="1.493408">
        <ele>195.3</ele>
        <time>2013-04-20T13:21:26Z</time>
      </trkpt>
      <trkpt lat="43.503918" lon="1.493356">
        <ele>195.8</ele>
        <time>2013-04-20T13:21:35Z</time>
      </trkpt>
      <trkpt lat="43.503831" lon="1.493300">
        <ele>196.2</ele>
        <time>2013-04-20T13:21:44Z</time>
      </trkpt>
      <trkpt lat="43.503741" lon="1.493238">
        <ele>196.2</ele>
        <time>2013-04-20T13:21:53Z</time>
      </trkpt>
      <trkpt lat="43.503642" lon="1.493158">
        <ele>199.6</ele>
        <time>2013-04-20T13:22:03Z</time>
      </trkpt>
      <trkpt lat="43.503554" lon="1.493074">
        <ele>198.6</ele>
        <time>2013-04-20T13:22:12Z</time>
      </trkpt>
      <trkpt lat="43.503459" lon="1.492976">
        <ele>198.6</ele>
        <time>2013-04-20T13:22:22Z</time>
      </trkpt>
      <trkpt lat="43.503371" lon="1.492897">
        <ele>200.1</ele>
        <time>2013-04-20T13:22:31Z</time>
      </trkpt>
      <trkpt lat="43.503283" lon="1.492813">
        <ele>200.6</ele>
        <time>2013-04-20T13:22:40Z</time>
      </trkpt>
      <trkpt lat="43.503175" lon="1.492742">
        <ele>200.6</ele>
        <time>2013-04-20T13:22:49Z</time>
      </trkpt>
      <trkpt lat="43.503077" lon="1.492672">
        <ele>201.5</ele>
        <time>2013-04-20T13:22:57Z</time>
      </trkpt>
      <trkpt lat="43.502973" lon="1.492621">
        <ele>202.0</ele>
        <time>2013-04-20T13:23:06Z</time>
      </trkpt>
      <trkpt lat="43.502876" lon="1.492578">
        <ele>203.5</ele>
        <time>2013-04-20T13:23:15Z</time>
      </trkpt>
      <trkpt lat="43.502782" lon="1.492544">
        <ele>203.5</ele>
        <time>2013-04-20T13:23:24Z</time>
      </trkpt>
      <trkpt lat="43.502683" lon="1.492503">
        <ele>204.4</ele>
        <time>2013-04-20T13:23:34Z</time>
      </trkpt>
      <trkpt lat="43.502583" lon="1.492468">
        <ele>206.8</ele>
        <time>2013-04-20T13:23:44Z</time>
      </trkpt>
      <trkpt lat="43.502478" lon="1.492440">
        <ele>206.8</ele>
        <time>2013-04-20T13:23:54Z</time>
      </trkpt>
      <trkpt lat="43.502373" lon="1.492406">
        <ele>207.8</ele>
        <time>2013-04-20T13:24:05Z</time>
      </trkpt>
      <trkpt lat="43.502268" lon="1.492373">
        <ele>209.2</ele>
        <time>2013-04-20T13:24:15Z</time>
      </trkpt>
      <trkpt lat="43.502165" lon="1.492364">
        <ele>209.7</ele>
        <time>2013-04-20T13:24:29Z</time>
      </trkpt>
      <trkpt lat="43.502066" lon="1.492364">
        <ele>211.1</ele>
        <time>2013-04-20T13:24:39Z</time>
      </trkpt>
      <trkpt lat="43.501978" lon="1.492371">
        <ele>211.6</ele>
        <time>2013-04-20T13:24:48Z</time>
      </trkpt>
      <trkpt lat="43.501888" lon="1.492410">
        <ele>212.6</ele>
        <time>2013-04-20T13:24:57Z</time>
      </trkpt>
      <trkpt lat="43.501799" lon="1.492469">
        <ele>215.0</ele>
        <time>2013-04-20T13:25:06Z</time>
      </trkpt>
      <trkpt lat="43.501720" lon="1.492557">
        <ele>215.5</ele>
        <time>2013-04-20T13:25:15Z</time>
      </trkpt>
      <trkpt lat="43.501647" lon="1.492638">
        <ele>215.5</ele>
        <time>2013-04-20T13:25:25Z</time>
      </trkpt>
      <trkpt lat="43.501572" lon="1.492702">
        <ele>216.4</ele>
        <time>2013-04-20T13:25:35Z</time>
      </trkpt>
      <trkpt lat="43.501494" lon="1.492776">
        <ele>218.4</ele>
        <time>2013-04-20T13:25:58Z</time>
      </trkpt>
      <trkpt lat="43.501412" lon="1.492863">
        <ele>220.8</ele>
        <time>2013-04-20T13:26:09Z</time>
      </trkpt>
      <trkpt lat="43.501343" lon="1.492964">
        <ele>221.7</ele>
        <time>2013-04-20T13:26:19Z</time>
      </trkpt>
      <trkpt lat="43.501265" lon="1.493069">
        <ele>223.2</ele>
        <time>2013-04-20T13:26:30Z</time>
      </trkpt>
      <trkpt lat="43.501195" lon="1.493163">
        <ele>224.1</ele>
        <time>2013-04-20T13:26:41Z</time>
      </trkpt>
      <trkpt lat="43.501117" lon="1.493266">
        <ele>227.0</ele>
        <time>2013-04-20T13:26:52Z</time>
      </trkpt>
      <trkpt lat="43.501044" lon="1.493347">
        <ele>228.4</ele>
        <time>2013-04-20T13:27:02Z</time>
      </trkpt>
      <trkpt lat="43.500973" lon="1.493446">
        <ele>229.9</ele>
        <time>2013-04-20T13:27:13Z</time>
      </trkpt>
      <trkpt lat="43.500912" lon="1.493548">
        <ele>230.9</ele>
        <time>2013-04-20T13:27:23Z</time>
      </trkpt>
      <trkpt lat="43.500847" lon="1.493654">
        <ele>232.8</ele>
        <time>2013-04-20T13:27:35Z</time>
      </trkpt>
      <trkpt lat="43.500778" lon="1.493757">
        <ele>234.2</ele>
        <time>2013-04-20T13:27:46Z</time>
      </trkpt>
      <trkpt lat="43.500697" lon="1.493844">
        <ele>235.2</ele>
        <time>2013-04-20T13:27:58Z</time>
      </trkpt>
      <trkpt lat="43.500599" lon="1.493942">
        <ele>237.1</ele>
        <time>2013-04-20T13:28:11Z</time>
      </trkpt>
      <trkpt lat="43.500496" lon="1.494061">
        <ele>238.1</ele>
        <time>2013-04-20T13:28:24Z</time>
      </trkpt>
      <trkpt lat="43.500415" lon="1.494178">
        <ele>240.5</ele>
        <time>2013-04-20T13:28:35Z</time>
      </trkpt>
      <trkpt lat="43.500329" lon="1.494284">
        <ele>241.4</ele>
        <time>2013-04-20T13:28:47Z</time>
      </trkpt>
      <trkpt lat="43.500298" lon="1.494354">
        <ele>243.4</ele>
        <time>2013-04-20T13:30:17Z</time>
      </trkpt>
      <trkpt lat="43.500170" lon="1.494461">
        <ele>242.9</ele>
        <time>2013-04-20T13:30:32Z</time>
      </trkpt>
      <trkpt lat="43.500083" lon="1.494574">
        <ele>243.8</ele>
        <time>2013-04-20T13:30:45Z</time>
      </trkpt>
      <trkpt lat="43.499998" lon="1.494688">
        <ele>244.8</ele>
        <time>2013-04-20T13:30:57Z</time>
      </trkpt>
      <trkpt lat="43.499916" lon="1.494809">
        <ele>245.8</ele>
        <time>2013-04-20T13:31:08Z</time>
      </trkpt>
      <trkpt lat="43.499838" lon="1.494911">
        <ele>246.7</ele>
        <time>2013-04-20T13:31:19Z</time>
      </trkpt>
      <trkpt lat="43.499772" lon="1.495022">
        <ele>246.7</ele>
        <time>2013-04-20T13:31:29Z</time>
      </trkpt>
      <trkpt lat="43.499706" lon="1.495121">
        <ele>247.7</ele>
        <time>2013-04-20T13:31:38Z</time>
      </trkpt>
      <trkpt lat="43.499631" lon="1.495220">
        <ele>247.2</ele>
        <time>2013-04-20T13:31:47Z</time>
      </trkpt>
      <trkpt lat="43.499554" lon="1.495317">
        <ele>248.2</ele>
        <time>2013-04-20T13:31:56Z</time>
      </trkpt>
      <trkpt lat="43.499482" lon="1.495407">
        <ele>248.2</ele>
        <time>2013-04-20T13:32:06Z</time>
      </trkpt>
      <trkpt lat="43.499416" lon="1.495492">
        <ele>248.6</ele>
        <time>2013-04-20T13:32:15Z</time>
      </trkpt>
      <trkpt lat="43.499351" lon="1.495588">
        <ele>249.6</ele>
        <time>2013-04-20T13:32:24Z</time>
      </trkpt>
      <trkpt lat="43.499295" lon="1.495692">
        <ele>250.1</ele>
        <time>2013-04-20T13:32:51Z</time>
      </trkpt>
      <trkpt lat="43.499236" lon="1.495806">
        <ele>250.6</ele>
        <time>2013-04-20T13:33:01Z</time>
      </trkpt>
      <trkpt lat="43.499177" lon="1.495906">
        <ele>251.0</ele>
        <time>2013-04-20T13:33:10Z</time>
      </trkpt>
      <trkpt lat="43.499115" lon="1.496011">
        <ele>251.0</ele>
        <time>2013-04-20T13:33:19Z</time>
      </trkpt>
      <trkpt lat="43.499050" lon="1.496086">
        <ele>251.0</ele>
        <time>2013-04-20T13:33:29Z</time>
      </trkpt>
      <trkpt lat="43.498972" lon="1.496184">
        <ele>251.0</ele>
        <time>2013-04-20T13:33:40Z</time>
      </trkpt>
      <trkpt lat="43.498908" lon="1.496258">
        <ele>251.0</ele>
        <time>2013-04-20T13:33:50Z</time>
      </trkpt>
      <trkpt lat="43.498842" lon="1.496355">
        <ele>250.6</ele>
        <time>2013-04-20T13:34:01Z</time>
      </trkpt>
      <trkpt lat="43.498764" lon="1.496457">
        <ele>250.6</ele>
        <time>2013-04-20T13:34:11Z</time>
      </trkpt>
      <trkpt lat="43.498724" lon="1.496509">
        <ele>249.6</ele>
        <time>2013-04-20T13:35:08Z</time>
      </trkpt>
      <trkpt lat="43.498681" lon="1.496543">
        <ele>250.6</ele>
        <time>2013-04-20T13:36:22Z</time>
      </trkpt>
      <trkpt lat="43.498632" lon="1.496654">
        <ele>250.6</ele>
        <time>2013-04-20T13:36:48Z</time>
      </trkpt>
      <trkpt lat="43.498559" lon="1.496755">
        <ele>250.6</ele>
        <time>2013-04-20T13:37:00Z</time>
      </trkpt>
      <trkpt lat="43.498506" lon="1.496852">
        <ele>250.6</ele>
        <time>2013-04-20T13:37:11Z</time>
      </trkpt>
      <trkpt lat="43.498442" lon="1.496961">
        <ele>250.1</ele>
        <time>2013-04-20T13:37:23Z</time>
      </trkpt>
      <trkpt lat="43.498344" lon="1.497049">
        <ele>249.6</ele>
        <time>2013-04-20T13:37:35Z</time>
      </trkpt>
      <trkpt lat="43.498262" lon="1.497139">
        <ele>250.1</ele>
        <time>2013-04-20T13:37:47Z</time>
      </trkpt>
      <trkpt lat="43.498172" lon="1.497267">
        <ele>250.1</ele>
        <time>2013-04-20T13:38:01Z</time>
      </trkpt>
      <trkpt lat="43.498160" lon="1.497524">
        <ele>249.6</ele>
        <time>2013-04-20T13:38:20Z</time>
      </trkpt>
      <trkpt lat="43.498081" lon="1.497679">
        <ele>249.1</ele>
        <time>2013-04-20T13:38:37Z</time>
      </trkpt>
      <trkpt lat="43.497932" lon="1.497771">
        <ele>249.6</ele>
        <time>2013-04-20T13:38:52Z</time>
      </trkpt>
      <trkpt lat="43.497802" lon="1.497805">
        <ele>250.1</ele>
        <time>2013-04-20T13:39:04Z</time>
      </trkpt>
      <trkpt lat="43.497714" lon="1.497927">
        <ele>250.6</ele>
        <time>2013-04-20T13:39:16Z</time>
      </trkpt>
      <trkpt lat="43.497638" lon="1.498036">
        <ele>250.1</ele>
        <time>2013-04-20T13:39:27Z</time>
      </trkpt>
      <trkpt lat="43.497564" lon="1.498142">
        <ele>250.1</ele>
        <time>2013-04-20T13:39:38Z</time>
      </trkpt>
      <trkpt lat="43.497493" lon="1.498252">
        <ele>250.6</ele>
        <time>2013-04-20T13:39:49Z</time>
      </trkpt>
      <trkpt lat="43.497418" lon="1.498378">
        <ele>250.6</ele>
        <time>2013-04-20T13:39:59Z</time>
      </trkpt>
      <trkpt lat="43.497345" lon="1.498491">
        <ele>250.6</ele>
        <time>2013-04-20T13:40:09Z</time>
      </trkpt>
      <trkpt lat="43.497268" lon="1.498622">
        <ele>251.0</ele>
        <time>2013-04-20T13:40:19Z</time>
      </trkpt>
      <trkpt lat="43.497207" lon="1.498722">
        <ele>251.5</ele>
        <time>2013-04-20T13:40:29Z</time>
      </trkpt>
      <trkpt lat="43.497155" lon="1.498815">
        <ele>251.5</ele>
        <time>2013-04-20T13:40:38Z</time>
      </trkpt>
      <trkpt lat="43.497094" lon="1.498923">
        <ele>251.5</ele>
        <time>2013-04-20T13:40:49Z</time>
      </trkpt>
      <trkpt lat="43.497031" lon="1.499095">
        <ele>253.0</ele>
        <time>2013-04-20T13:41:00Z</time>
      </trkpt>
      <trkpt lat="43.496940" lon="1.499241">
        <ele>253.4</ele>
        <time>2013-04-20T13:41:14Z</time>
      </trkpt>
      <trkpt lat="43.496913" lon="1.499387">
        <ele>253.0</ele>
        <time>2013-04-20T13:41:29Z</time>
      </trkpt>
      <trkpt lat="43.497067" lon="1.499504">
        <ele>247.7</ele>
        <time>2013-04-20T13:41:49Z</time>
      </trkpt>
      <trkpt lat="43.497213" lon="1.499645">
        <ele>245.3</ele>
        <time>2013-04-20T13:42:08Z</time>
      </trkpt>
      <trkpt lat="43.497286" lon="1.499850">
        <ele>241.9</ele>
        <time>2013-04-20T13:42:28Z</time>
      </trkpt>
      <trkpt lat="43.497313" lon="1.500110">
        <ele>240.5</ele>
        <time>2013-04-20T13:42:40Z</time>
      </trkpt>
      <trkpt lat="43.497361" lon="1.500294">
        <ele>238.1</ele>
        <time>2013-04-20T13:42:53Z</time>
      </trkpt>
      <trkpt lat="43.497432" lon="1.500495">
        <ele>236.6</ele>
        <time>2013-04-20T13:43:08Z</time>
      </trkpt>
      <trkpt lat="43.497494" lon="1.500645">
        <ele>235.2</ele>
        <time>2013-04-20T13:43:19Z</time>
      </trkpt>
      <trkpt lat="43.497596" lon="1.500871">
        <ele>233.3</ele>
        <time>2013-04-20T13:43:36Z</time>
      </trkpt>
      <trkpt lat="43.497628" lon="1.501206">
        <ele>229.9</ele>
        <time>2013-04-20T13:44:00Z</time>
      </trkpt>
      <trkpt lat="43.497657" lon="1.501491">
        <ele>228.9</ele>
        <time>2013-04-20T13:44:16Z</time>
      </trkpt>
      <trkpt lat="43.497710" lon="1.501707">
        <ele>228.9</ele>
        <time>2013-04-20T13:44:31Z</time>
      </trkpt>
      <trkpt lat="43.497774" lon="1.501848">
        <ele>228.4</ele>
        <time>2013-04-20T13:44:43Z</time>
      </trkpt>
      <trkpt lat="43.497870" lon="1.501993">
        <ele>229.4</ele>
        <time>2013-04-20T13:44:54Z</time>
      </trkpt>
      <trkpt lat="43.497960" lon="1.502146">
        <ele>230.4</ele>
        <time>2013-04-20T13:45:07Z</time>
      </trkpt>
      <trkpt lat="43.498053" lon="1.502301">
        <ele>231.8</ele>
        <time>2013-04-20T13:45:21Z</time>
      </trkpt>
      <trkpt lat="43.498161" lon="1.502443">
        <ele>232.3</ele>
        <time>2013-04-20T13:45:34Z</time>
      </trkpt>
      <trkpt lat="43.498243" lon="1.502576">
        <ele>233.7</ele>
        <time>2013-04-20T13:45:46Z</time>
      </trkpt>
      <trkpt lat="43.498307" lon="1.502703">
        <ele>234.7</ele>
        <time>2013-04-20T13:45:57Z</time>
      </trkpt>
      <trkpt lat="43.498379" lon="1.502820">
        <ele>235.2</ele>
        <time>2013-04-20T13:46:18Z</time>
      </trkpt>
      <trkpt lat="43.498457" lon="1.502909">
        <ele>236.1</ele>
        <time>2013-04-20T13:46:29Z</time>
      </trkpt>
      <trkpt lat="43.498542" lon="1.503015">
        <ele>237.1</ele>
        <time>2013-04-20T13:46:41Z</time>
      </trkpt>
      <trkpt lat="43.498629" lon="1.503115">
        <ele>237.1</ele>
        <time>2013-04-20T13:46:50Z</time>
      </trkpt>
      <trkpt lat="43.498735" lon="1.503222">
        <ele>239.0</ele>
        <time>2013-04-20T13:47:01Z</time>
      </trkpt>
      <trkpt lat="43.498830" lon="1.503315">
        <ele>239.5</ele>
        <time>2013-04-20T13:47:11Z</time>
      </trkpt>
      <trkpt lat="43.498936" lon="1.503420">
        <ele>241.9</ele>
        <time>2013-04-20T13:47:24Z</time>
      </trkpt>
      <trkpt lat="43.499040" lon="1.503520">
        <ele>242.9</ele>
        <time>2013-04-20T13:47:35Z</time>
      </trkpt>
      <trkpt lat="43.499173" lon="1.503666">
        <ele>244.8</ele>
        <time>2013-04-20T13:47:49Z</time>
      </trkpt>
      <trkpt lat="43.499297" lon="1.503848">
        <ele>245.3</ele>
        <time>2013-04-20T13:48:04Z</time>
      </trkpt>
      <trkpt lat="43.499318" lon="1.504074">
        <ele>244.3</ele>
        <time>2013-04-20T13:48:19Z</time>
      </trkpt>
      <trkpt lat="43.499393" lon="1.504205">
        <ele>243.8</ele>
        <time>2013-04-20T13:48:31Z</time>
      </trkpt>
      <trkpt lat="43.499437" lon="1.504327">
        <ele>242.4</ele>
        <time>2013-04-20T13:48:42Z</time>
      </trkpt>
      <trkpt lat="43.499485" lon="1.504463">
        <ele>240.9</ele>
        <time>2013-04-20T13:48:53Z</time>
      </trkpt>
      <trkpt lat="43.499550" lon="1.504573">
        <ele>240.0</ele>
        <time>2013-04-20T13:49:03Z</time>
      </trkpt>
      <trkpt lat="43.499599" lon="1.504706">
        <ele>238.5</ele>
        <time>2013-04-20T13:49:13Z</time>
      </trkpt>
      <trkpt lat="43.499645" lon="1.504855">
        <ele>237.6</ele>
        <time>2013-04-20T13:49:23Z</time>
      </trkpt>
      <trkpt lat="43.499686" lon="1.504987">
        <ele>235.7</ele>
        <time>2013-04-20T13:49:32Z</time>
      </trkpt>
      <trkpt lat="43.499694" lon="1.505141">
        <ele>234.2</ele>
        <time>2013-04-20T13:49:42Z</time>
      </trkpt>
      <trkpt lat="43.499737" lon="1.505256">
        <ele>234.7</ele>
        <time>2013-04-20T13:49:58Z</time>
      </trkpt>
      <trkpt lat="43.499827" lon="1.505369">
        <ele>232.8</ele>
        <time>2013-04-20T13:50:19Z</time>
      </trkpt>
      <trkpt lat="43.499942" lon="1.505432">
        <ele>231.3</ele>
        <time>2013-04-20T13:50:34Z</time>
      </trkpt>
      <trkpt lat="43.500048" lon="1.505516">
        <ele>229.4</ele>
        <time>2013-04-20T13:50:45Z</time>
      </trkpt>
      <trkpt lat="43.500137" lon="1.505603">
        <ele>227.5</ele>
        <time>2013-04-20T13:50:55Z</time>
      </trkpt>
      <trkpt lat="43.500276" lon="1.505725">
        <ele>225.1</ele>
        <time>2013-04-20T13:51:11Z</time>
      </trkpt>
      <trkpt lat="43.500420" lon="1.505859">
        <ele>222.7</ele>
        <time>2013-04-20T13:51:26Z</time>
      </trkpt>
      <trkpt lat="43.500543" lon="1.506103">
        <ele>219.8</ele>
        <time>2013-04-20T13:51:46Z</time>
      </trkpt>
      <trkpt lat="43.500617" lon="1.506398">
        <ele>216.4</ele>
        <time>2013-04-20T13:52:04Z</time>
      </trkpt>
      <trkpt lat="43.500707" lon="1.506601">
        <ele>215.5</ele>
        <time>2013-04-20T13:52:21Z</time>
      </trkpt>
      <trkpt lat="43.500823" lon="1.506817">
        <ele>211.1</ele>
        <time>2013-04-20T13:52:41Z</time>
      </trkpt>
      <trkpt lat="43.500917" lon="1.506997">
        <ele>208.7</ele>
        <time>2013-04-20T13:52:54Z</time>
      </trkpt>
      <trkpt lat="43.501055" lon="1.507161">
        <ele>206.3</ele>
        <time>2013-04-20T13:53:08Z</time>
      </trkpt>
      <trkpt lat="43.501156" lon="1.507306">
        <ele>203.9</ele>
        <time>2013-04-20T13:53:20Z</time>
      </trkpt>
      <trkpt lat="43.501261" lon="1.507466">
        <ele>201.5</ele>
        <time>2013-04-20T13:53:33Z</time>
      </trkpt>
      <trkpt lat="43.501357" lon="1.507622">
        <ele>199.1</ele>
        <time>2013-04-20T13:53:46Z</time>
      </trkpt>
      <trkpt lat="43.501473" lon="1.507786">
        <ele>195.3</ele>
        <time>2013-04-20T13:54:02Z</time>
      </trkpt>
      <trkpt lat="43.501576" lon="1.507918">
        <ele>193.8</ele>
        <time>2013-04-20T13:54:13Z</time>
      </trkpt>
      <trkpt lat="43.501686" lon="1.508046">
        <ele>192.4</ele>
        <time>2013-04-20T13:54:26Z</time>
      </trkpt>
      <trkpt lat="43.501875" lon="1.508216">
        <ele>189.5</ele>
        <time>2013-04-20T13:54:46Z</time>
      </trkpt>
      <trkpt lat="43.502004" lon="1.508343">
        <ele>187.6</ele>
        <time>2013-04-20T13:55:00Z</time>
      </trkpt>
      <trkpt lat="43.501973" lon="1.508577">
        <ele>186.1</ele>
        <time>2013-04-20T13:55:15Z</time>
      </trkpt>
      <trkpt lat="43.502054" lon="1.508697">
        <ele>184.2</ele>
        <time>2013-04-20T13:55:26Z</time>
      </trkpt>
      <trkpt lat="43.502128" lon="1.508775">
        <ele>182.8</ele>
        <time>2013-04-20T13:55:37Z</time>
      </trkpt>
    </trkseg>
  </trk>
</gpx>

